<?xml version="1.0" encoding="UTF-8" standalone="no" ?>
<gpx xmlns="http://www.topografix.com/GPX/1/1" xmlns:xsi="http://www.w3.org/2001/XMLSchema-instance" xsi:schemaLocation="http://www.topografix.com/GPX/1/1 http://www.topografix.com/GPX/1/1/gpx.xsd" version="1.1" creator="VisuGPX - https://www.visugpx.com">
  <metadata>
    <name>Pic de bacanère en boucle</name>
    <desc><![CDATA[Pic de bacanère en boucle]]></desc>
  </metadata>
  <trk>
    <name><![CDATA[Randocourse]]></name>
    <trkseg>
      <trkpt lat="42.8418" lon="0.66389">
        <ele>2074.181640625</ele>
        <time>2011-06-14T10:03:53Z</time>
      </trkpt>
      <trkpt lat="42.84177" lon="0.66386">
        <ele>2072.7397460938</ele>
        <time>2011-06-14T10:04:04Z</time>
      </trkpt>
      <trkpt lat="42.84174" lon="0.6638">
        <ele>2072.2590332031</ele>
        <time>2011-06-14T10:04:09Z</time>
      </trkpt>
      <trkpt lat="42.84169" lon="0.66374">
        <ele>2072.2590332031</ele>
        <time>2011-06-14T10:04:15Z</time>
      </trkpt>
      <trkpt lat="42.84164" lon="0.66366">
        <ele>2071.7783203125</ele>
        <time>2011-06-14T10:04:22Z</time>
      </trkpt>
      <trkpt lat="42.84162" lon="0.66363">
        <ele>2071.7783203125</ele>
        <time>2011-06-14T10:04:24Z</time>
      </trkpt>
      <trkpt lat="42.84156" lon="0.6635">
        <ele>2071.7783203125</ele>
        <time>2011-06-14T10:04:31Z</time>
      </trkpt>
      <trkpt lat="42.84151" lon="0.66335">
        <ele>2071.7783203125</ele>
        <time>2011-06-14T10:04:36Z</time>
      </trkpt>
      <trkpt lat="42.84146" lon="0.66317">
        <ele>2070.8171386719</ele>
        <time>2011-06-14T10:04:42Z</time>
      </trkpt>
      <trkpt lat="42.84141" lon="0.66305">
        <ele>2069.3752441406</ele>
        <time>2011-06-14T10:04:47Z</time>
      </trkpt>
      <trkpt lat="42.84134" lon="0.66287">
        <ele>2067.4523925781</ele>
        <time>2011-06-14T10:04:53Z</time>
      </trkpt>
      <trkpt lat="42.84125" lon="0.66271">
        <ele>2065.5300292969</ele>
        <time>2011-06-14T10:04:58Z</time>
      </trkpt>
      <trkpt lat="42.84117" lon="0.66258">
        <ele>2063.6071777344</ele>
        <time>2011-06-14T10:05:02Z</time>
      </trkpt>
      <trkpt lat="42.84109" lon="0.66247">
        <ele>2060.7233886719</ele>
        <time>2011-06-14T10:05:06Z</time>
      </trkpt>
      <trkpt lat="42.84097" lon="0.6623">
        <ele>2058.3198242188</ele>
        <time>2011-06-14T10:05:12Z</time>
      </trkpt>
      <trkpt lat="42.84087" lon="0.66218">
        <ele>2056.8779296875</ele>
        <time>2011-06-14T10:05:17Z</time>
      </trkpt>
      <trkpt lat="42.84081" lon="0.66208">
        <ele>2054.9553222656</ele>
        <time>2011-06-14T10:05:21Z</time>
      </trkpt>
      <trkpt lat="42.84073" lon="0.66195">
        <ele>2052.5520019531</ele>
        <time>2011-06-14T10:05:26Z</time>
      </trkpt>
      <trkpt lat="42.84063" lon="0.66184">
        <ele>2051.1101074219</ele>
        <time>2011-06-14T10:05:31Z</time>
      </trkpt>
      <trkpt lat="42.84053" lon="0.66172">
        <ele>2050.6293945312</ele>
        <time>2011-06-14T10:05:36Z</time>
      </trkpt>
      <trkpt lat="42.84047" lon="0.66158">
        <ele>2051.5908203125</ele>
        <time>2011-06-14T10:05:41Z</time>
      </trkpt>
      <trkpt lat="42.84045" lon="0.66156">
        <ele>2052.0712890625</ele>
        <time>2011-06-14T10:05:42Z</time>
      </trkpt>
      <trkpt lat="42.84042" lon="0.66151">
        <ele>2052.0712890625</ele>
        <time>2011-06-14T10:05:46Z</time>
      </trkpt>
      <trkpt lat="42.84037" lon="0.66146">
        <ele>2052.0712890625</ele>
        <time>2011-06-14T10:05:51Z</time>
      </trkpt>
      <trkpt lat="42.84026" lon="0.66135">
        <ele>2052.5520019531</ele>
        <time>2011-06-14T10:06:00Z</time>
      </trkpt>
      <trkpt lat="42.84019" lon="0.66126">
        <ele>2052.0712890625</ele>
        <time>2011-06-14T10:06:06Z</time>
      </trkpt>
      <trkpt lat="42.8401" lon="0.66117">
        <ele>2051.5908203125</ele>
        <time>2011-06-14T10:06:13Z</time>
      </trkpt>
      <trkpt lat="42.84003" lon="0.66109">
        <ele>2052.5520019531</ele>
        <time>2011-06-14T10:06:20Z</time>
      </trkpt>
      <trkpt lat="42.83998" lon="0.66099">
        <ele>2053.5134277344</ele>
        <time>2011-06-14T10:06:27Z</time>
      </trkpt>
      <trkpt lat="42.83991" lon="0.66092">
        <ele>2055.4360351562</ele>
        <time>2011-06-14T10:06:35Z</time>
      </trkpt>
      <trkpt lat="42.83985" lon="0.66087">
        <ele>2056.3972167969</ele>
        <time>2011-06-14T10:06:43Z</time>
      </trkpt>
      <trkpt lat="42.83978" lon="0.66079">
        <ele>2054.9553222656</ele>
        <time>2011-06-14T10:06:49Z</time>
      </trkpt>
      <trkpt lat="42.83973" lon="0.66071">
        <ele>2053.0327148438</ele>
        <time>2011-06-14T10:06:53Z</time>
      </trkpt>
      <trkpt lat="42.83964" lon="0.66063">
        <ele>2049.1875</ele>
        <time>2011-06-14T10:06:59Z</time>
      </trkpt>
      <trkpt lat="42.83952" lon="0.66057">
        <ele>2046.3037109375</ele>
        <time>2011-06-14T10:07:04Z</time>
      </trkpt>
      <trkpt lat="42.83941" lon="0.66049">
        <ele>2043.4194335938</ele>
        <time>2011-06-14T10:07:10Z</time>
      </trkpt>
      <trkpt lat="42.83935" lon="0.66045">
        <ele>2041.9775390625</ele>
        <time>2011-06-14T10:07:15Z</time>
      </trkpt>
      <trkpt lat="42.83926" lon="0.66034">
        <ele>2037.6516113281</ele>
        <time>2011-06-14T10:07:22Z</time>
      </trkpt>
      <trkpt lat="42.83917" lon="0.66028">
        <ele>2034.7678222656</ele>
        <time>2011-06-14T10:07:27Z</time>
      </trkpt>
      <trkpt lat="42.83906" lon="0.6602">
        <ele>2031.4030761719</ele>
        <time>2011-06-14T10:07:32Z</time>
      </trkpt>
      <trkpt lat="42.83893" lon="0.66011">
        <ele>2027.5576171875</ele>
        <time>2011-06-14T10:07:38Z</time>
      </trkpt>
      <trkpt lat="42.83881" lon="0.66003">
        <ele>2024.673828125</ele>
        <time>2011-06-14T10:07:43Z</time>
      </trkpt>
      <trkpt lat="42.8387" lon="0.65994">
        <ele>2020.3479003906</ele>
        <time>2011-06-14T10:07:49Z</time>
      </trkpt>
      <trkpt lat="42.83859" lon="0.65989">
        <ele>2017.9445800781</ele>
        <time>2011-06-14T10:07:54Z</time>
      </trkpt>
      <trkpt lat="42.83849" lon="0.65982">
        <ele>2015.5415039062</ele>
        <time>2011-06-14T10:07:59Z</time>
      </trkpt>
      <trkpt lat="42.8384" lon="0.65978">
        <ele>2012.6574707031</ele>
        <time>2011-06-14T10:08:04Z</time>
      </trkpt>
      <trkpt lat="42.83835" lon="0.65976">
        <ele>2010.7346191406</ele>
        <time>2011-06-14T10:08:07Z</time>
      </trkpt>
      <trkpt lat="42.83831" lon="0.65971">
        <ele>2008.8120117188</ele>
        <time>2011-06-14T10:08:14Z</time>
      </trkpt>
      <trkpt lat="42.83828" lon="0.65971">
        <ele>2007.3701171875</ele>
        <time>2011-06-14T10:08:17Z</time>
      </trkpt>
      <trkpt lat="42.83818" lon="0.65961">
        <ele>2004.4860839844</ele>
        <time>2011-06-14T10:08:24Z</time>
      </trkpt>
      <trkpt lat="42.83815" lon="0.65959">
        <ele>2003.0441894531</ele>
        <time>2011-06-14T10:08:27Z</time>
      </trkpt>
      <trkpt lat="42.83808" lon="0.65952">
        <ele>2001.1215820312</ele>
        <time>2011-06-14T10:08:32Z</time>
      </trkpt>
      <trkpt lat="42.83798" lon="0.65942">
        <ele>1999.6796875</ele>
        <time>2011-06-14T10:08:37Z</time>
      </trkpt>
      <trkpt lat="42.83787" lon="0.65937">
        <ele>1996.7956542969</ele>
        <time>2011-06-14T10:08:42Z</time>
      </trkpt>
      <trkpt lat="42.83778" lon="0.65934">
        <ele>1993.9116210938</ele>
        <time>2011-06-14T10:08:47Z</time>
      </trkpt>
      <trkpt lat="42.83765" lon="0.65925">
        <ele>1991.0275878906</ele>
        <time>2011-06-14T10:08:53Z</time>
      </trkpt>
      <trkpt lat="42.83753" lon="0.65917">
        <ele>1990.06640625</ele>
        <time>2011-06-14T10:08:58Z</time>
      </trkpt>
      <trkpt lat="42.83741" lon="0.65907">
        <ele>1989.1049804688</ele>
        <time>2011-06-14T10:09:03Z</time>
      </trkpt>
      <trkpt lat="42.8373" lon="0.65895">
        <ele>1989.1049804688</ele>
        <time>2011-06-14T10:09:08Z</time>
      </trkpt>
      <trkpt lat="42.83715" lon="0.65879">
        <ele>1988.6245117188</ele>
        <time>2011-06-14T10:09:15Z</time>
      </trkpt>
      <trkpt lat="42.83706" lon="0.65869">
        <ele>1988.1437988281</ele>
        <time>2011-06-14T10:09:20Z</time>
      </trkpt>
      <trkpt lat="42.83698" lon="0.6586">
        <ele>1987.1823730469</ele>
        <time>2011-06-14T10:09:24Z</time>
      </trkpt>
      <trkpt lat="42.83694" lon="0.65853">
        <ele>1987.6630859375</ele>
        <time>2011-06-14T10:09:28Z</time>
      </trkpt>
      <trkpt lat="42.83693" lon="0.65847">
        <ele>1987.1823730469</ele>
        <time>2011-06-14T10:09:32Z</time>
      </trkpt>
      <trkpt lat="42.83686" lon="0.65836">
        <ele>1986.7016601562</ele>
        <time>2011-06-14T10:09:40Z</time>
      </trkpt>
      <trkpt lat="42.83683" lon="0.65833">
        <ele>1986.2211914062</ele>
        <time>2011-06-14T10:09:43Z</time>
      </trkpt>
      <trkpt lat="42.83678" lon="0.65831">
        <ele>1985.7404785156</ele>
        <time>2011-06-14T10:09:47Z</time>
      </trkpt>
      <trkpt lat="42.83675" lon="0.65831">
        <ele>1985.259765625</ele>
        <time>2011-06-14T10:09:49Z</time>
      </trkpt>
      <trkpt lat="42.83665" lon="0.65827">
        <ele>1984.2985839844</ele>
        <time>2011-06-14T10:09:57Z</time>
      </trkpt>
      <trkpt lat="42.83663" lon="0.65826">
        <ele>1983.3371582031</ele>
        <time>2011-06-14T10:09:59Z</time>
      </trkpt>
      <trkpt lat="42.83654" lon="0.65814">
        <ele>1982.8564453125</ele>
        <time>2011-06-14T10:10:04Z</time>
      </trkpt>
      <trkpt lat="42.83644" lon="0.65802">
        <ele>1980.9340820312</ele>
        <time>2011-06-14T10:10:09Z</time>
      </trkpt>
      <trkpt lat="42.83632" lon="0.65785">
        <ele>1980.4533691406</ele>
        <time>2011-06-14T10:10:15Z</time>
      </trkpt>
      <trkpt lat="42.8363" lon="0.65784">
        <ele>1980.4533691406</ele>
        <time>2011-06-14T10:10:16Z</time>
      </trkpt>
      <trkpt lat="42.83619" lon="0.65769">
        <ele>1979.4916992188</ele>
        <time>2011-06-14T10:10:22Z</time>
      </trkpt>
      <trkpt lat="42.83608" lon="0.65754">
        <ele>1978.0498046875</ele>
        <time>2011-06-14T10:10:28Z</time>
      </trkpt>
      <trkpt lat="42.83599" lon="0.6574">
        <ele>1977.0886230469</ele>
        <time>2011-06-14T10:10:33Z</time>
      </trkpt>
      <trkpt lat="42.83587" lon="0.65724">
        <ele>1975.646484375</ele>
        <time>2011-06-14T10:10:40Z</time>
      </trkpt>
      <trkpt lat="42.83577" lon="0.65717">
        <ele>1974.2045898438</ele>
        <time>2011-06-14T10:10:45Z</time>
      </trkpt>
      <trkpt lat="42.83572" lon="0.65717">
        <ele>1972.7626953125</ele>
        <time>2011-06-14T10:10:49Z</time>
      </trkpt>
      <trkpt lat="42.83568" lon="0.65717">
        <ele>1971.3205566406</ele>
        <time>2011-06-14T10:10:56Z</time>
      </trkpt>
      <trkpt lat="42.83564" lon="0.65718">
        <ele>1971.3205566406</ele>
        <time>2011-06-14T10:11:06Z</time>
      </trkpt>
      <trkpt lat="42.83562" lon="0.65719">
        <ele>1970.8400878906</ele>
        <time>2011-06-14T10:11:08Z</time>
      </trkpt>
      <trkpt lat="42.83554" lon="0.65721">
        <ele>1967.4753417969</ele>
        <time>2011-06-14T10:11:14Z</time>
      </trkpt>
      <trkpt lat="42.83548" lon="0.65721">
        <ele>1966.5141601562</ele>
        <time>2011-06-14T10:11:18Z</time>
      </trkpt>
      <trkpt lat="42.8354" lon="0.65723">
        <ele>1964.5915527344</ele>
        <time>2011-06-14T10:11:24Z</time>
      </trkpt>
      <trkpt lat="42.83533" lon="0.65725">
        <ele>1962.6687011719</ele>
        <time>2011-06-14T10:11:29Z</time>
      </trkpt>
      <trkpt lat="42.83523" lon="0.65727">
        <ele>1960.2653808594</ele>
        <time>2011-06-14T10:11:38Z</time>
      </trkpt>
      <trkpt lat="42.83522" lon="0.65726">
        <ele>1960.2653808594</ele>
        <time>2011-06-14T10:11:45Z</time>
      </trkpt>
      <trkpt lat="42.83518" lon="0.65724">
        <ele>1957.3815917969</ele>
        <time>2011-06-14T10:11:51Z</time>
      </trkpt>
      <trkpt lat="42.83511" lon="0.65718">
        <ele>1954.9782714844</ele>
        <time>2011-06-14T10:11:57Z</time>
      </trkpt>
      <trkpt lat="42.83504" lon="0.65711">
        <ele>1952.0942382812</ele>
        <time>2011-06-14T10:12:03Z</time>
      </trkpt>
      <trkpt lat="42.83501" lon="0.65708">
        <ele>1951.6137695312</ele>
        <time>2011-06-14T10:12:06Z</time>
      </trkpt>
      <trkpt lat="42.83498" lon="0.65702">
        <ele>1949.6911621094</ele>
        <time>2011-06-14T10:12:12Z</time>
      </trkpt>
      <trkpt lat="42.83495" lon="0.65699">
        <ele>1948.2490234375</ele>
        <time>2011-06-14T10:12:17Z</time>
      </trkpt>
      <trkpt lat="42.83487" lon="0.65692">
        <ele>1946.3264160156</ele>
        <time>2011-06-14T10:12:25Z</time>
      </trkpt>
      <trkpt lat="42.83486" lon="0.6569">
        <ele>1945.845703125</ele>
        <time>2011-06-14T10:12:33Z</time>
      </trkpt>
      <trkpt lat="42.83484" lon="0.65685">
        <ele>1944.4035644531</ele>
        <time>2011-06-14T10:12:43Z</time>
      </trkpt>
      <trkpt lat="42.83482" lon="0.65677">
        <ele>1942.0004882812</ele>
        <time>2011-06-14T10:12:51Z</time>
      </trkpt>
      <trkpt lat="42.83479" lon="0.65669">
        <ele>1939.1164550781</ele>
        <time>2011-06-14T10:12:58Z</time>
      </trkpt>
      <trkpt lat="42.83481" lon="0.65668">
        <ele>1938.1552734375</ele>
        <time>2011-06-14T10:13:02Z</time>
      </trkpt>
      <trkpt lat="42.83478" lon="0.65663">
        <ele>1936.7131347656</ele>
        <time>2011-06-14T10:13:08Z</time>
      </trkpt>
      <trkpt lat="42.83478" lon="0.65663">
        <ele>1935.751953125</ele>
        <time>2011-06-14T10:13:15Z</time>
      </trkpt>
      <trkpt lat="42.83479" lon="0.65662">
        <ele>1935.751953125</ele>
        <time>2011-06-14T10:13:20Z</time>
      </trkpt>
      <trkpt lat="42.83484" lon="0.65663">
        <ele>1934.7907714844</ele>
        <time>2011-06-14T10:13:24Z</time>
      </trkpt>
      <trkpt lat="42.83485" lon="0.65663">
        <ele>1933.3486328125</ele>
        <time>2011-06-14T10:13:27Z</time>
      </trkpt>
      <trkpt lat="42.83484" lon="0.65657">
        <ele>1934.3100585938</ele>
        <time>2011-06-14T10:13:50Z</time>
      </trkpt>
      <trkpt lat="42.83485" lon="0.65658">
        <ele>1934.3100585938</ele>
        <time>2011-06-14T10:13:51Z</time>
      </trkpt>
      <trkpt lat="42.83487" lon="0.65658">
        <ele>1933.8293457031</ele>
        <time>2011-06-14T10:16:44Z</time>
      </trkpt>
      <trkpt lat="42.83487" lon="0.65658">
        <ele>1934.3100585938</ele>
        <time>2011-06-14T10:16:45Z</time>
      </trkpt>
      <trkpt lat="42.83488" lon="0.65657">
        <ele>1934.3100585938</ele>
        <time>2011-06-14T10:16:47Z</time>
      </trkpt>
      <trkpt lat="42.83498" lon="0.65657">
        <ele>1934.3100585938</ele>
        <time>2011-06-14T10:16:55Z</time>
      </trkpt>
      <trkpt lat="42.83503" lon="0.65657">
        <ele>1934.7907714844</ele>
        <time>2011-06-14T10:16:59Z</time>
      </trkpt>
      <trkpt lat="42.83511" lon="0.65653">
        <ele>1935.2712402344</ele>
        <time>2011-06-14T10:17:05Z</time>
      </trkpt>
      <trkpt lat="42.83517" lon="0.65649">
        <ele>1934.7907714844</ele>
        <time>2011-06-14T10:17:11Z</time>
      </trkpt>
      <trkpt lat="42.83521" lon="0.65646">
        <ele>1934.7907714844</ele>
        <time>2011-06-14T10:17:14Z</time>
      </trkpt>
      <trkpt lat="42.83525" lon="0.65643">
        <ele>1933.3486328125</ele>
        <time>2011-06-14T10:17:17Z</time>
      </trkpt>
      <trkpt lat="42.8353" lon="0.6564">
        <ele>1931.9064941406</ele>
        <time>2011-06-14T10:17:21Z</time>
      </trkpt>
      <trkpt lat="42.83538" lon="0.65633">
        <ele>1931.42578125</ele>
        <time>2011-06-14T10:17:29Z</time>
      </trkpt>
      <trkpt lat="42.83542" lon="0.6563">
        <ele>1931.9064941406</ele>
        <time>2011-06-14T10:17:33Z</time>
      </trkpt>
      <trkpt lat="42.83549" lon="0.65625">
        <ele>1931.42578125</ele>
        <time>2011-06-14T10:17:38Z</time>
      </trkpt>
      <trkpt lat="42.83556" lon="0.65619">
        <ele>1933.3486328125</ele>
        <time>2011-06-14T10:17:46Z</time>
      </trkpt>
      <trkpt lat="42.83563" lon="0.65611">
        <ele>1933.8293457031</ele>
        <time>2011-06-14T10:17:53Z</time>
      </trkpt>
      <trkpt lat="42.83564" lon="0.6561">
        <ele>1933.8293457031</ele>
        <time>2011-06-14T10:17:54Z</time>
      </trkpt>
      <trkpt lat="42.83568" lon="0.65607">
        <ele>1934.7907714844</ele>
        <time>2011-06-14T10:17:57Z</time>
      </trkpt>
      <trkpt lat="42.83575" lon="0.656">
        <ele>1934.7907714844</ele>
        <time>2011-06-14T10:18:04Z</time>
      </trkpt>
      <trkpt lat="42.83581" lon="0.65595">
        <ele>1935.2712402344</ele>
        <time>2011-06-14T10:18:10Z</time>
      </trkpt>
      <trkpt lat="42.83585" lon="0.65592">
        <ele>1935.2712402344</ele>
        <time>2011-06-14T10:18:15Z</time>
      </trkpt>
      <trkpt lat="42.8359" lon="0.65584">
        <ele>1934.3100585938</ele>
        <time>2011-06-14T10:18:21Z</time>
      </trkpt>
      <trkpt lat="42.83595" lon="0.65577">
        <ele>1933.3486328125</ele>
        <time>2011-06-14T10:18:27Z</time>
      </trkpt>
      <trkpt lat="42.836" lon="0.65573">
        <ele>1931.42578125</ele>
        <time>2011-06-14T10:18:33Z</time>
      </trkpt>
      <trkpt lat="42.83609" lon="0.65566">
        <ele>1928.5419921875</ele>
        <time>2011-06-14T10:18:42Z</time>
      </trkpt>
      <trkpt lat="42.83615" lon="0.65561">
        <ele>1927.1000976562</ele>
        <time>2011-06-14T10:18:48Z</time>
      </trkpt>
      <trkpt lat="42.83621" lon="0.65557">
        <ele>1924.6967773438</ele>
        <time>2011-06-14T10:18:53Z</time>
      </trkpt>
      <trkpt lat="42.83629" lon="0.65553">
        <ele>1923.2548828125</ele>
        <time>2011-06-14T10:18:59Z</time>
      </trkpt>
      <trkpt lat="42.83635" lon="0.65552">
        <ele>1922.2934570312</ele>
        <time>2011-06-14T10:19:05Z</time>
      </trkpt>
      <trkpt lat="42.8364" lon="0.65551">
        <ele>1921.8127441406</ele>
        <time>2011-06-14T10:19:09Z</time>
      </trkpt>
      <trkpt lat="42.83642" lon="0.6555">
        <ele>1921.33203125</ele>
        <time>2011-06-14T10:19:11Z</time>
      </trkpt>
      <trkpt lat="42.83645" lon="0.65551">
        <ele>1921.33203125</ele>
        <time>2011-06-14T10:19:18Z</time>
      </trkpt>
      <trkpt lat="42.83651" lon="0.6555">
        <ele>1919.8901367188</ele>
        <time>2011-06-14T10:19:23Z</time>
      </trkpt>
      <trkpt lat="42.83658" lon="0.65549">
        <ele>1917.4868164062</ele>
        <time>2011-06-14T10:19:31Z</time>
      </trkpt>
      <trkpt lat="42.83659" lon="0.65549">
        <ele>1917.0063476562</ele>
        <time>2011-06-14T10:19:37Z</time>
      </trkpt>
      <trkpt lat="42.83664" lon="0.65545">
        <ele>1914.6027832031</ele>
        <time>2011-06-14T10:19:43Z</time>
      </trkpt>
      <trkpt lat="42.83673" lon="0.65545">
        <ele>1912.6801757812</ele>
        <time>2011-06-14T10:19:50Z</time>
      </trkpt>
      <trkpt lat="42.83675" lon="0.65544">
        <ele>1912.1994628906</ele>
        <time>2011-06-14T10:19:52Z</time>
      </trkpt>
      <trkpt lat="42.83683" lon="0.65543">
        <ele>1910.2768554688</ele>
        <time>2011-06-14T10:19:59Z</time>
      </trkpt>
      <trkpt lat="42.83689" lon="0.65544">
        <ele>1908.3542480469</ele>
        <time>2011-06-14T10:20:07Z</time>
      </trkpt>
      <trkpt lat="42.83689" lon="0.65544">
        <ele>1908.3542480469</ele>
        <time>2011-06-14T10:20:16Z</time>
      </trkpt>
      <trkpt lat="42.83691" lon="0.65544">
        <ele>1907.3930664062</ele>
        <time>2011-06-14T10:20:25Z</time>
      </trkpt>
      <trkpt lat="42.83698" lon="0.65546">
        <ele>1905.4704589844</ele>
        <time>2011-06-14T10:20:32Z</time>
      </trkpt>
      <trkpt lat="42.83704" lon="0.65547">
        <ele>1904.0285644531</ele>
        <time>2011-06-14T10:20:38Z</time>
      </trkpt>
      <trkpt lat="42.83709" lon="0.65547">
        <ele>1902.5864257812</ele>
        <time>2011-06-14T10:20:44Z</time>
      </trkpt>
      <trkpt lat="42.83714" lon="0.65544">
        <ele>1901.14453125</ele>
        <time>2011-06-14T10:20:49Z</time>
      </trkpt>
      <trkpt lat="42.8372" lon="0.65542">
        <ele>1899.7023925781</ele>
        <time>2011-06-14T10:20:54Z</time>
      </trkpt>
      <trkpt lat="42.83727" lon="0.65538">
        <ele>1896.818359375</ele>
        <time>2011-06-14T10:21:01Z</time>
      </trkpt>
      <trkpt lat="42.83733" lon="0.65535">
        <ele>1896.337890625</ele>
        <time>2011-06-14T10:21:06Z</time>
      </trkpt>
      <trkpt lat="42.83738" lon="0.65532">
        <ele>1894.4150390625</ele>
        <time>2011-06-14T10:21:12Z</time>
      </trkpt>
      <trkpt lat="42.83746" lon="0.65526">
        <ele>1892.9731445312</ele>
        <time>2011-06-14T10:21:20Z</time>
      </trkpt>
      <trkpt lat="42.83748" lon="0.65524">
        <ele>1892.4926757812</ele>
        <time>2011-06-14T10:21:22Z</time>
      </trkpt>
      <trkpt lat="42.83752" lon="0.65524">
        <ele>1892.4926757812</ele>
        <time>2011-06-14T10:21:28Z</time>
      </trkpt>
      <trkpt lat="42.83757" lon="0.6552">
        <ele>1891.0505371094</ele>
        <time>2011-06-14T10:21:34Z</time>
      </trkpt>
      <trkpt lat="42.83764" lon="0.65511">
        <ele>1888.1667480469</ele>
        <time>2011-06-14T10:21:41Z</time>
      </trkpt>
      <trkpt lat="42.83767" lon="0.65508">
        <ele>1887.6860351562</ele>
        <time>2011-06-14T10:21:43Z</time>
      </trkpt>
      <trkpt lat="42.83775" lon="0.65501">
        <ele>1885.2827148438</ele>
        <time>2011-06-14T10:21:51Z</time>
      </trkpt>
      <trkpt lat="42.83776" lon="0.65499">
        <ele>1884.3215332031</ele>
        <time>2011-06-14T10:21:53Z</time>
      </trkpt>
      <trkpt lat="42.83783" lon="0.65492">
        <ele>1882.8791503906</ele>
        <time>2011-06-14T10:22:00Z</time>
      </trkpt>
      <trkpt lat="42.83788" lon="0.65486">
        <ele>1880.4760742188</ele>
        <time>2011-06-14T10:22:07Z</time>
      </trkpt>
      <trkpt lat="42.83792" lon="0.65482">
        <ele>1879.0339355469</ele>
        <time>2011-06-14T10:22:11Z</time>
      </trkpt>
      <trkpt lat="42.83799" lon="0.65475">
        <ele>1877.1115722656</ele>
        <time>2011-06-14T10:22:18Z</time>
      </trkpt>
      <trkpt lat="42.83806" lon="0.65469">
        <ele>1875.1887207031</ele>
        <time>2011-06-14T10:22:24Z</time>
      </trkpt>
      <trkpt lat="42.83815" lon="0.6546">
        <ele>1872.7856445312</ele>
        <time>2011-06-14T10:22:32Z</time>
      </trkpt>
      <trkpt lat="42.83821" lon="0.65454">
        <ele>1870.8630371094</ele>
        <time>2011-06-14T10:22:37Z</time>
      </trkpt>
      <trkpt lat="42.83829" lon="0.65448">
        <ele>1868.4597167969</ele>
        <time>2011-06-14T10:22:43Z</time>
      </trkpt>
      <trkpt lat="42.8383" lon="0.65447">
        <ele>1867.9787597656</ele>
        <time>2011-06-14T10:22:45Z</time>
      </trkpt>
      <trkpt lat="42.83837" lon="0.65439">
        <ele>1865.0949707031</ele>
        <time>2011-06-14T10:22:51Z</time>
      </trkpt>
      <trkpt lat="42.83846" lon="0.65431">
        <ele>1863.1723632812</ele>
        <time>2011-06-14T10:22:58Z</time>
      </trkpt>
      <trkpt lat="42.83852" lon="0.65425">
        <ele>1860.7690429688</ele>
        <time>2011-06-14T10:23:03Z</time>
      </trkpt>
      <trkpt lat="42.83859" lon="0.65418">
        <ele>1859.3271484375</ele>
        <time>2011-06-14T10:23:10Z</time>
      </trkpt>
      <trkpt lat="42.83868" lon="0.65413">
        <ele>1856.923828125</ele>
        <time>2011-06-14T10:23:16Z</time>
      </trkpt>
      <trkpt lat="42.83874" lon="0.65406">
        <ele>1855.4819335938</ele>
        <time>2011-06-14T10:23:22Z</time>
      </trkpt>
      <trkpt lat="42.83881" lon="0.654">
        <ele>1854.5205078125</ele>
        <time>2011-06-14T10:23:28Z</time>
      </trkpt>
      <trkpt lat="42.83887" lon="0.65394">
        <ele>1853.0786132812</ele>
        <time>2011-06-14T10:23:33Z</time>
      </trkpt>
      <trkpt lat="42.83894" lon="0.65384">
        <ele>1849.7138671875</ele>
        <time>2011-06-14T10:23:41Z</time>
      </trkpt>
      <trkpt lat="42.83901" lon="0.65375">
        <ele>1847.7912597656</ele>
        <time>2011-06-14T10:23:49Z</time>
      </trkpt>
      <trkpt lat="42.83907" lon="0.65366">
        <ele>1846.3493652344</ele>
        <time>2011-06-14T10:23:56Z</time>
      </trkpt>
      <trkpt lat="42.83911" lon="0.6536">
        <ele>1845.8686523438</ele>
        <time>2011-06-14T10:24:02Z</time>
      </trkpt>
      <trkpt lat="42.83918" lon="0.6535">
        <ele>1843.9460449219</ele>
        <time>2011-06-14T10:24:09Z</time>
      </trkpt>
      <trkpt lat="42.83924" lon="0.6534">
        <ele>1841.5427246094</ele>
        <time>2011-06-14T10:24:16Z</time>
      </trkpt>
      <trkpt lat="42.83929" lon="0.65333">
        <ele>1840.1008300781</ele>
        <time>2011-06-14T10:24:21Z</time>
      </trkpt>
      <trkpt lat="42.83934" lon="0.65325">
        <ele>1838.1782226562</ele>
        <time>2011-06-14T10:24:26Z</time>
      </trkpt>
      <trkpt lat="42.83938" lon="0.65315">
        <ele>1837.216796875</ele>
        <time>2011-06-14T10:24:32Z</time>
      </trkpt>
      <trkpt lat="42.83944" lon="0.65304">
        <ele>1835.2939453125</ele>
        <time>2011-06-14T10:24:39Z</time>
      </trkpt>
      <trkpt lat="42.8395" lon="0.65294">
        <ele>1833.8520507812</ele>
        <time>2011-06-14T10:24:46Z</time>
      </trkpt>
      <trkpt lat="42.83955" lon="0.65285">
        <ele>1832.41015625</ele>
        <time>2011-06-14T10:24:52Z</time>
      </trkpt>
      <trkpt lat="42.8396" lon="0.65275">
        <ele>1830.9682617188</ele>
        <time>2011-06-14T10:24:58Z</time>
      </trkpt>
      <trkpt lat="42.83965" lon="0.65264">
        <ele>1829.5261230469</ele>
        <time>2011-06-14T10:25:05Z</time>
      </trkpt>
      <trkpt lat="42.8397" lon="0.65254">
        <ele>1828.5649414062</ele>
        <time>2011-06-14T10:25:12Z</time>
      </trkpt>
      <trkpt lat="42.83971" lon="0.65253">
        <ele>1828.0842285156</ele>
        <time>2011-06-14T10:25:13Z</time>
      </trkpt>
      <trkpt lat="42.83976" lon="0.65247">
        <ele>1827.123046875</ele>
        <time>2011-06-14T10:25:20Z</time>
      </trkpt>
      <trkpt lat="42.83979" lon="0.65243">
        <ele>1826.1616210938</ele>
        <time>2011-06-14T10:25:25Z</time>
      </trkpt>
      <trkpt lat="42.83979" lon="0.65241">
        <ele>1826.1616210938</ele>
        <time>2011-06-14T10:25:26Z</time>
      </trkpt>
      <trkpt lat="42.83979" lon="0.65236">
        <ele>1824.7197265625</ele>
        <time>2011-06-14T10:25:29Z</time>
      </trkpt>
      <trkpt lat="42.83981" lon="0.65225">
        <ele>1821.8356933594</ele>
        <time>2011-06-14T10:25:35Z</time>
      </trkpt>
      <trkpt lat="42.83981" lon="0.65222">
        <ele>1821.3549804688</ele>
        <time>2011-06-14T10:25:36Z</time>
      </trkpt>
      <trkpt lat="42.83981" lon="0.65216">
        <ele>1819.9128417969</ele>
        <time>2011-06-14T10:25:39Z</time>
      </trkpt>
      <trkpt lat="42.83984" lon="0.65202">
        <ele>1816.5483398438</ele>
        <time>2011-06-14T10:25:45Z</time>
      </trkpt>
      <trkpt lat="42.83984" lon="0.65197">
        <ele>1815.1064453125</ele>
        <time>2011-06-14T10:25:50Z</time>
      </trkpt>
      <trkpt lat="42.83985" lon="0.65191">
        <ele>1813.6643066406</ele>
        <time>2011-06-14T10:25:56Z</time>
      </trkpt>
      <trkpt lat="42.83985" lon="0.6519">
        <ele>1813.1838378906</ele>
        <time>2011-06-14T10:25:57Z</time>
      </trkpt>
      <trkpt lat="42.83988" lon="0.65178">
        <ele>1810.2998046875</ele>
        <time>2011-06-14T10:26:03Z</time>
      </trkpt>
      <trkpt lat="42.8399" lon="0.65167">
        <ele>1807.8967285156</ele>
        <time>2011-06-14T10:26:09Z</time>
      </trkpt>
      <trkpt lat="42.83991" lon="0.65163">
        <ele>1806.4545898438</ele>
        <time>2011-06-14T10:26:11Z</time>
      </trkpt>
      <trkpt lat="42.83991" lon="0.65153">
        <ele>1804.0515136719</ele>
        <time>2011-06-14T10:26:16Z</time>
      </trkpt>
      <trkpt lat="42.83993" lon="0.65145">
        <ele>1801.6479492188</ele>
        <time>2011-06-14T10:26:21Z</time>
      </trkpt>
      <trkpt lat="42.83993" lon="0.65137">
        <ele>1800.2060546875</ele>
        <time>2011-06-14T10:26:26Z</time>
      </trkpt>
      <trkpt lat="42.83994" lon="0.65129">
        <ele>1798.283203125</ele>
        <time>2011-06-14T10:26:31Z</time>
      </trkpt>
      <trkpt lat="42.83995" lon="0.65126">
        <ele>1797.3220214844</ele>
        <time>2011-06-14T10:26:33Z</time>
      </trkpt>
      <trkpt lat="42.83997" lon="0.65118">
        <ele>1795.8801269531</ele>
        <time>2011-06-14T10:26:38Z</time>
      </trkpt>
      <trkpt lat="42.84" lon="0.65107">
        <ele>1794.4379882812</ele>
        <time>2011-06-14T10:26:44Z</time>
      </trkpt>
      <trkpt lat="42.84" lon="0.65096">
        <ele>1792.0349121094</ele>
        <time>2011-06-14T10:26:49Z</time>
      </trkpt>
      <trkpt lat="42.84001" lon="0.6509">
        <ele>1791.5541992188</ele>
        <time>2011-06-14T10:26:51Z</time>
      </trkpt>
      <trkpt lat="42.84003" lon="0.65074">
        <ele>1787.7087402344</ele>
        <time>2011-06-14T10:26:58Z</time>
      </trkpt>
      <trkpt lat="42.84004" lon="0.65065">
        <ele>1786.2668457031</ele>
        <time>2011-06-14T10:27:03Z</time>
      </trkpt>
      <trkpt lat="42.84004" lon="0.65055">
        <ele>1783.8635253906</ele>
        <time>2011-06-14T10:27:08Z</time>
      </trkpt>
      <trkpt lat="42.84006" lon="0.65048">
        <ele>1782.4216308594</ele>
        <time>2011-06-14T10:27:12Z</time>
      </trkpt>
      <trkpt lat="42.84007" lon="0.65036">
        <ele>1780.0183105469</ele>
        <time>2011-06-14T10:27:19Z</time>
      </trkpt>
      <trkpt lat="42.84007" lon="0.65031">
        <ele>1779.5375976562</ele>
        <time>2011-06-14T10:27:22Z</time>
      </trkpt>
      <trkpt lat="42.8401" lon="0.65019">
        <ele>1777.1345214844</ele>
        <time>2011-06-14T10:27:30Z</time>
      </trkpt>
      <trkpt lat="42.84012" lon="0.65007">
        <ele>1775.2116699219</ele>
        <time>2011-06-14T10:27:36Z</time>
      </trkpt>
      <trkpt lat="42.84013" lon="0.65003">
        <ele>1774.2504882812</ele>
        <time>2011-06-14T10:27:38Z</time>
      </trkpt>
      <trkpt lat="42.84013" lon="0.64987">
        <ele>1771.3662109375</ele>
        <time>2011-06-14T10:27:45Z</time>
      </trkpt>
      <trkpt lat="42.84012" lon="0.64976">
        <ele>1769.9243164062</ele>
        <time>2011-06-14T10:27:51Z</time>
      </trkpt>
      <trkpt lat="42.84012" lon="0.64975">
        <ele>1769.4438476562</ele>
        <time>2011-06-14T10:27:57Z</time>
      </trkpt>
      <trkpt lat="42.84011" lon="0.6497">
        <ele>1768.9631347656</ele>
        <time>2011-06-14T10:28:02Z</time>
      </trkpt>
      <trkpt lat="42.8401" lon="0.64964">
        <ele>1768.0017089844</ele>
        <time>2011-06-14T10:28:05Z</time>
      </trkpt>
      <trkpt lat="42.84008" lon="0.64955">
        <ele>1766.5598144531</ele>
        <time>2011-06-14T10:28:11Z</time>
      </trkpt>
      <trkpt lat="42.84013" lon="0.64954">
        <ele>1767.5209960938</ele>
        <time>2011-06-14T10:29:03Z</time>
      </trkpt>
      <trkpt lat="42.84013" lon="0.64954">
        <ele>1767.0405273438</ele>
        <time>2011-06-14T10:29:04Z</time>
      </trkpt>
      <trkpt lat="42.84013" lon="0.64954">
        <ele>1767.5209960938</ele>
        <time>2011-06-14T10:29:05Z</time>
      </trkpt>
      <trkpt lat="42.84011" lon="0.64952">
        <ele>1767.0405273438</ele>
        <time>2011-06-14T10:32:00Z</time>
      </trkpt>
      <trkpt lat="42.84012" lon="0.64952">
        <ele>1767.0405273438</ele>
        <time>2011-06-14T10:32:01Z</time>
      </trkpt>
      <trkpt lat="42.84016" lon="0.64947">
        <ele>1766.0791015625</ele>
        <time>2011-06-14T10:32:06Z</time>
      </trkpt>
      <trkpt lat="42.84021" lon="0.64941">
        <ele>1766.5598144531</ele>
        <time>2011-06-14T10:32:12Z</time>
      </trkpt>
      <trkpt lat="42.84024" lon="0.64938">
        <ele>1766.0791015625</ele>
        <time>2011-06-14T10:32:19Z</time>
      </trkpt>
      <trkpt lat="42.84026" lon="0.64935">
        <ele>1766.5598144531</ele>
        <time>2011-06-14T10:32:24Z</time>
      </trkpt>
      <trkpt lat="42.84029" lon="0.64929">
        <ele>1765.5986328125</ele>
        <time>2011-06-14T10:32:30Z</time>
      </trkpt>
      <trkpt lat="42.84035" lon="0.64922">
        <ele>1764.1564941406</ele>
        <time>2011-06-14T10:32:38Z</time>
      </trkpt>
      <trkpt lat="42.84039" lon="0.64915">
        <ele>1763.1953125</ele>
        <time>2011-06-14T10:32:46Z</time>
      </trkpt>
      <trkpt lat="42.84041" lon="0.64908">
        <ele>1762.7145996094</ele>
        <time>2011-06-14T10:32:52Z</time>
      </trkpt>
      <trkpt lat="42.84044" lon="0.64902">
        <ele>1762.2338867188</ele>
        <time>2011-06-14T10:32:57Z</time>
      </trkpt>
      <trkpt lat="42.84048" lon="0.64894">
        <ele>1761.7534179688</ele>
        <time>2011-06-14T10:33:03Z</time>
      </trkpt>
      <trkpt lat="42.84053" lon="0.64883">
        <ele>1760.7919921875</ele>
        <time>2011-06-14T10:33:10Z</time>
      </trkpt>
      <trkpt lat="42.84054" lon="0.6488">
        <ele>1760.3112792969</ele>
        <time>2011-06-14T10:33:12Z</time>
      </trkpt>
      <trkpt lat="42.84061" lon="0.64867">
        <ele>1760.7919921875</ele>
        <time>2011-06-14T10:33:21Z</time>
      </trkpt>
      <trkpt lat="42.84062" lon="0.64866">
        <ele>1760.7919921875</ele>
        <time>2011-06-14T10:33:22Z</time>
      </trkpt>
      <trkpt lat="42.84067" lon="0.64856">
        <ele>1762.2338867188</ele>
        <time>2011-06-14T10:33:29Z</time>
      </trkpt>
      <trkpt lat="42.84075" lon="0.6484">
        <ele>1763.67578125</ele>
        <time>2011-06-14T10:33:40Z</time>
      </trkpt>
      <trkpt lat="42.84079" lon="0.64835">
        <ele>1764.6372070312</ele>
        <time>2011-06-14T10:33:45Z</time>
      </trkpt>
      <trkpt lat="42.84085" lon="0.64827">
        <ele>1766.0791015625</ele>
        <time>2011-06-14T10:33:53Z</time>
      </trkpt>
      <trkpt lat="42.84088" lon="0.64823">
        <ele>1766.5598144531</ele>
        <time>2011-06-14T10:33:57Z</time>
      </trkpt>
      <trkpt lat="42.84093" lon="0.64817">
        <ele>1767.5209960938</ele>
        <time>2011-06-14T10:34:04Z</time>
      </trkpt>
      <trkpt lat="42.84097" lon="0.64814">
        <ele>1768.0017089844</ele>
        <time>2011-06-14T10:34:10Z</time>
      </trkpt>
      <trkpt lat="42.84101" lon="0.6481">
        <ele>1768.482421875</ele>
        <time>2011-06-14T10:34:16Z</time>
      </trkpt>
      <trkpt lat="42.84103" lon="0.64807">
        <ele>1768.0017089844</ele>
        <time>2011-06-14T10:34:22Z</time>
      </trkpt>
      <trkpt lat="42.84111" lon="0.64802">
        <ele>1768.482421875</ele>
        <time>2011-06-14T10:34:30Z</time>
      </trkpt>
      <trkpt lat="42.8412" lon="0.64795">
        <ele>1768.0017089844</ele>
        <time>2011-06-14T10:34:38Z</time>
      </trkpt>
      <trkpt lat="42.84125" lon="0.64794">
        <ele>1768.482421875</ele>
        <time>2011-06-14T10:34:43Z</time>
      </trkpt>
      <trkpt lat="42.84129" lon="0.64792">
        <ele>1768.482421875</ele>
        <time>2011-06-14T10:35:05Z</time>
      </trkpt>
      <trkpt lat="42.84129" lon="0.64792">
        <ele>1768.482421875</ele>
        <time>2011-06-14T10:35:06Z</time>
      </trkpt>
      <trkpt lat="42.84132" lon="0.64785">
        <ele>1767.5209960938</ele>
        <time>2011-06-14T10:35:12Z</time>
      </trkpt>
      <trkpt lat="42.84133" lon="0.64778">
        <ele>1765.5986328125</ele>
        <time>2011-06-14T10:35:18Z</time>
      </trkpt>
      <trkpt lat="42.84135" lon="0.6477">
        <ele>1764.6372070312</ele>
        <time>2011-06-14T10:35:24Z</time>
      </trkpt>
      <trkpt lat="42.84143" lon="0.64764">
        <ele>1763.67578125</ele>
        <time>2011-06-14T10:35:32Z</time>
      </trkpt>
      <trkpt lat="42.8415" lon="0.64759">
        <ele>1761.2727050781</ele>
        <time>2011-06-14T10:35:38Z</time>
      </trkpt>
      <trkpt lat="42.84156" lon="0.64757">
        <ele>1759.3500976562</ele>
        <time>2011-06-14T10:35:44Z</time>
      </trkpt>
      <trkpt lat="42.84157" lon="0.64756">
        <ele>1759.8305664062</ele>
        <time>2011-06-14T10:35:45Z</time>
      </trkpt>
      <trkpt lat="42.84161" lon="0.64753">
        <ele>1758.388671875</ele>
        <time>2011-06-14T10:35:52Z</time>
      </trkpt>
      <trkpt lat="42.84165" lon="0.64748">
        <ele>1756.4660644531</ele>
        <time>2011-06-14T10:35:58Z</time>
      </trkpt>
      <trkpt lat="42.84166" lon="0.64741">
        <ele>1754.5432128906</ele>
        <time>2011-06-14T10:36:04Z</time>
      </trkpt>
      <trkpt lat="42.84167" lon="0.64734">
        <ele>1754.0627441406</ele>
        <time>2011-06-14T10:36:09Z</time>
      </trkpt>
      <trkpt lat="42.84168" lon="0.64733">
        <ele>1753.58203125</ele>
        <time>2011-06-14T10:36:10Z</time>
      </trkpt>
      <trkpt lat="42.84172" lon="0.6472">
        <ele>1749.7368164062</ele>
        <time>2011-06-14T10:36:18Z</time>
      </trkpt>
      <trkpt lat="42.84173" lon="0.64716">
        <ele>1748.775390625</ele>
        <time>2011-06-14T10:36:21Z</time>
      </trkpt>
      <trkpt lat="42.84171" lon="0.64708">
        <ele>1746.3723144531</ele>
        <time>2011-06-14T10:36:27Z</time>
      </trkpt>
      <trkpt lat="42.84167" lon="0.64698">
        <ele>1742.5270996094</ele>
        <time>2011-06-14T10:36:34Z</time>
      </trkpt>
      <trkpt lat="42.84164" lon="0.64687">
        <ele>1738.2009277344</ele>
        <time>2011-06-14T10:36:42Z</time>
      </trkpt>
      <trkpt lat="42.84163" lon="0.64678">
        <ele>1734.8364257812</ele>
        <time>2011-06-14T10:36:48Z</time>
      </trkpt>
      <trkpt lat="42.84162" lon="0.64674">
        <ele>1733.3942871094</ele>
        <time>2011-06-14T10:36:51Z</time>
      </trkpt>
      <trkpt lat="42.84162" lon="0.64669">
        <ele>1730.9912109375</ele>
        <time>2011-06-14T10:36:55Z</time>
      </trkpt>
      <trkpt lat="42.84158" lon="0.64662">
        <ele>1728.587890625</ele>
        <time>2011-06-14T10:37:00Z</time>
      </trkpt>
      <trkpt lat="42.84154" lon="0.64654">
        <ele>1725.2231445312</ele>
        <time>2011-06-14T10:37:06Z</time>
      </trkpt>
      <trkpt lat="42.84148" lon="0.64645">
        <ele>1722.3391113281</ele>
        <time>2011-06-14T10:37:12Z</time>
      </trkpt>
      <trkpt lat="42.84142" lon="0.64638">
        <ele>1719.4553222656</ele>
        <time>2011-06-14T10:37:18Z</time>
      </trkpt>
      <trkpt lat="42.84137" lon="0.64628">
        <ele>1715.6101074219</ele>
        <time>2011-06-14T10:37:25Z</time>
      </trkpt>
      <trkpt lat="42.84137" lon="0.64625">
        <ele>1714.6486816406</ele>
        <time>2011-06-14T10:37:27Z</time>
      </trkpt>
      <trkpt lat="42.84134" lon="0.64622">
        <ele>1713.2067871094</ele>
        <time>2011-06-14T10:37:30Z</time>
      </trkpt>
      <trkpt lat="42.84132" lon="0.64611">
        <ele>1708.880859375</ele>
        <time>2011-06-14T10:37:38Z</time>
      </trkpt>
      <trkpt lat="42.84132" lon="0.64602">
        <ele>1705.0354003906</ele>
        <time>2011-06-14T10:37:44Z</time>
      </trkpt>
      <trkpt lat="42.84136" lon="0.64596">
        <ele>1702.6320800781</ele>
        <time>2011-06-14T10:37:49Z</time>
      </trkpt>
      <trkpt lat="42.8414" lon="0.64589">
        <ele>1700.2290039062</ele>
        <time>2011-06-14T10:37:54Z</time>
      </trkpt>
      <trkpt lat="42.84142" lon="0.64585">
        <ele>1698.3061523438</ele>
        <time>2011-06-14T10:37:59Z</time>
      </trkpt>
      <trkpt lat="42.8414" lon="0.64579">
        <ele>1696.3837890625</ele>
        <time>2011-06-14T10:38:03Z</time>
      </trkpt>
      <trkpt lat="42.84142" lon="0.64573">
        <ele>1694.9416503906</ele>
        <time>2011-06-14T10:38:07Z</time>
      </trkpt>
      <trkpt lat="42.84146" lon="0.64564">
        <ele>1691.0961914062</ele>
        <time>2011-06-14T10:38:13Z</time>
      </trkpt>
      <trkpt lat="42.84145" lon="0.64558">
        <ele>1689.1735839844</ele>
        <time>2011-06-14T10:38:17Z</time>
      </trkpt>
      <trkpt lat="42.84144" lon="0.64552">
        <ele>1687.2509765625</ele>
        <time>2011-06-14T10:38:23Z</time>
      </trkpt>
      <trkpt lat="42.84145" lon="0.64543">
        <ele>1684.3671875</ele>
        <time>2011-06-14T10:38:28Z</time>
      </trkpt>
      <trkpt lat="42.84146" lon="0.64538">
        <ele>1681.9638671875</ele>
        <time>2011-06-14T10:38:32Z</time>
      </trkpt>
      <trkpt lat="42.84145" lon="0.64533">
        <ele>1680.0412597656</ele>
        <time>2011-06-14T10:38:35Z</time>
      </trkpt>
      <trkpt lat="42.84146" lon="0.64526">
        <ele>1678.1186523438</ele>
        <time>2011-06-14T10:38:39Z</time>
      </trkpt>
      <trkpt lat="42.84146" lon="0.64516">
        <ele>1674.2731933594</ele>
        <time>2011-06-14T10:38:46Z</time>
      </trkpt>
      <trkpt lat="42.84146" lon="0.64511">
        <ele>1673.3120117188</ele>
        <time>2011-06-14T10:38:49Z</time>
      </trkpt>
      <trkpt lat="42.84144" lon="0.64498">
        <ele>1669.466796875</ele>
        <time>2011-06-14T10:38:57Z</time>
      </trkpt>
      <trkpt lat="42.84144" lon="0.64487">
        <ele>1667.0634765625</ele>
        <time>2011-06-14T10:39:03Z</time>
      </trkpt>
      <trkpt lat="42.84145" lon="0.64474">
        <ele>1663.2182617188</ele>
        <time>2011-06-14T10:39:11Z</time>
      </trkpt>
      <trkpt lat="42.84146" lon="0.64465">
        <ele>1661.2956542969</ele>
        <time>2011-06-14T10:39:18Z</time>
      </trkpt>
      <trkpt lat="42.84146" lon="0.64459">
        <ele>1659.8532714844</ele>
        <time>2011-06-14T10:39:23Z</time>
      </trkpt>
      <trkpt lat="42.84147" lon="0.64452">
        <ele>1658.4113769531</ele>
        <time>2011-06-14T10:39:28Z</time>
      </trkpt>
      <trkpt lat="42.84151" lon="0.64448">
        <ele>1656.0080566406</ele>
        <time>2011-06-14T10:39:33Z</time>
      </trkpt>
      <trkpt lat="42.84151" lon="0.64447">
        <ele>1655.5275878906</ele>
        <time>2011-06-14T10:39:34Z</time>
      </trkpt>
      <trkpt lat="42.84151" lon="0.64443">
        <ele>1654.5661621094</ele>
        <time>2011-06-14T10:39:37Z</time>
      </trkpt>
      <trkpt lat="42.84152" lon="0.64431">
        <ele>1652.1628417969</ele>
        <time>2011-06-14T10:39:44Z</time>
      </trkpt>
      <trkpt lat="42.84153" lon="0.64423">
        <ele>1651.2016601562</ele>
        <time>2011-06-14T10:39:49Z</time>
      </trkpt>
      <trkpt lat="42.84154" lon="0.64421">
        <ele>1650.7209472656</ele>
        <time>2011-06-14T10:39:50Z</time>
      </trkpt>
      <trkpt lat="42.84156" lon="0.64405">
        <ele>1646.8757324219</ele>
        <time>2011-06-14T10:39:58Z</time>
      </trkpt>
      <trkpt lat="42.84156" lon="0.64394">
        <ele>1644.4724121094</ele>
        <time>2011-06-14T10:40:04Z</time>
      </trkpt>
      <trkpt lat="42.84157" lon="0.64386">
        <ele>1642.5498046875</ele>
        <time>2011-06-14T10:40:10Z</time>
      </trkpt>
      <trkpt lat="42.84159" lon="0.64376">
        <ele>1640.146484375</ele>
        <time>2011-06-14T10:40:15Z</time>
      </trkpt>
      <trkpt lat="42.84159" lon="0.64362">
        <ele>1636.7817382812</ele>
        <time>2011-06-14T10:40:21Z</time>
      </trkpt>
      <trkpt lat="42.84161" lon="0.64356">
        <ele>1635.8205566406</ele>
        <time>2011-06-14T10:40:25Z</time>
      </trkpt>
      <trkpt lat="42.84162" lon="0.64343">
        <ele>1633.8979492188</ele>
        <time>2011-06-14T10:40:32Z</time>
      </trkpt>
      <trkpt lat="42.84164" lon="0.64328">
        <ele>1631.4946289062</ele>
        <time>2011-06-14T10:40:39Z</time>
      </trkpt>
      <trkpt lat="42.84167" lon="0.64315">
        <ele>1630.5334472656</ele>
        <time>2011-06-14T10:40:46Z</time>
      </trkpt>
      <trkpt lat="42.84174" lon="0.6431">
        <ele>1629.5720214844</ele>
        <time>2011-06-14T10:40:53Z</time>
      </trkpt>
      <trkpt lat="42.84178" lon="0.64311">
        <ele>1628.6108398438</ele>
        <time>2011-06-14T10:40:59Z</time>
      </trkpt>
      <trkpt lat="42.8418" lon="0.64308">
        <ele>1628.1301269531</ele>
        <time>2011-06-14T10:41:04Z</time>
      </trkpt>
      <trkpt lat="42.84183" lon="0.64304">
        <ele>1626.2072753906</ele>
        <time>2011-06-14T10:41:10Z</time>
      </trkpt>
      <trkpt lat="42.84182" lon="0.64292">
        <ele>1623.8039550781</ele>
        <time>2011-06-14T10:41:19Z</time>
      </trkpt>
      <trkpt lat="42.84181" lon="0.64283">
        <ele>1623.3234863281</ele>
        <time>2011-06-14T10:41:24Z</time>
      </trkpt>
      <trkpt lat="42.84175" lon="0.64268">
        <ele>1623.8039550781</ele>
        <time>2011-06-14T10:41:35Z</time>
      </trkpt>
      <trkpt lat="42.84172" lon="0.64265">
        <ele>1624.7653808594</ele>
        <time>2011-06-14T10:41:40Z</time>
      </trkpt>
      <trkpt lat="42.84169" lon="0.64265">
        <ele>1619.4782714844</ele>
        <time>2011-06-14T10:44:13Z</time>
      </trkpt>
      <trkpt lat="42.84169" lon="0.64265">
        <ele>1619.4782714844</ele>
        <time>2011-06-14T10:44:14Z</time>
      </trkpt>
      <trkpt lat="42.8417" lon="0.64262">
        <ele>1618.9975585938</ele>
        <time>2011-06-14T10:44:15Z</time>
      </trkpt>
      <trkpt lat="42.84172" lon="0.64254">
        <ele>1618.0361328125</ele>
        <time>2011-06-14T10:44:20Z</time>
      </trkpt>
      <trkpt lat="42.84174" lon="0.64245">
        <ele>1617.0749511719</ele>
        <time>2011-06-14T10:44:28Z</time>
      </trkpt>
      <trkpt lat="42.84174" lon="0.64238">
        <ele>1616.1135253906</ele>
        <time>2011-06-14T10:44:32Z</time>
      </trkpt>
      <trkpt lat="42.84174" lon="0.64224">
        <ele>1614.6716308594</ele>
        <time>2011-06-14T10:44:39Z</time>
      </trkpt>
      <trkpt lat="42.84173" lon="0.6422">
        <ele>1614.6716308594</ele>
        <time>2011-06-14T10:44:41Z</time>
      </trkpt>
      <trkpt lat="42.84173" lon="0.64205">
        <ele>1613.2297363281</ele>
        <time>2011-06-14T10:44:48Z</time>
      </trkpt>
      <trkpt lat="42.84175" lon="0.64185">
        <ele>1611.7875976562</ele>
        <time>2011-06-14T10:44:54Z</time>
      </trkpt>
      <trkpt lat="42.84173" lon="0.64162">
        <ele>1608.4228515625</ele>
        <time>2011-06-14T10:45:01Z</time>
      </trkpt>
      <trkpt lat="42.84166" lon="0.64143">
        <ele>1604.5776367188</ele>
        <time>2011-06-14T10:45:07Z</time>
      </trkpt>
      <trkpt lat="42.8416" lon="0.64129">
        <ele>1601.6938476562</ele>
        <time>2011-06-14T10:45:12Z</time>
      </trkpt>
      <trkpt lat="42.84153" lon="0.64115">
        <ele>1599.2905273438</ele>
        <time>2011-06-14T10:45:17Z</time>
      </trkpt>
      <trkpt lat="42.84143" lon="0.64096">
        <ele>1594.4836425781</ele>
        <time>2011-06-14T10:45:24Z</time>
      </trkpt>
      <trkpt lat="42.84141" lon="0.64094">
        <ele>1594.0031738281</ele>
        <time>2011-06-14T10:45:25Z</time>
      </trkpt>
      <trkpt lat="42.84127" lon="0.64081">
        <ele>1588.2353515625</ele>
        <time>2011-06-14T10:45:32Z</time>
      </trkpt>
      <trkpt lat="42.84119" lon="0.64068">
        <ele>1583.4287109375</ele>
        <time>2011-06-14T10:45:38Z</time>
      </trkpt>
      <trkpt lat="42.84118" lon="0.64067">
        <ele>1582.4675292969</ele>
        <time>2011-06-14T10:45:39Z</time>
      </trkpt>
      <trkpt lat="42.84113" lon="0.64054">
        <ele>1579.1025390625</ele>
        <time>2011-06-14T10:45:45Z</time>
      </trkpt>
      <trkpt lat="42.84105" lon="0.64034">
        <ele>1573.3349609375</ele>
        <time>2011-06-14T10:45:53Z</time>
      </trkpt>
      <trkpt lat="42.84102" lon="0.64018">
        <ele>1570.4509277344</ele>
        <time>2011-06-14T10:45:59Z</time>
      </trkpt>
      <trkpt lat="42.84101" lon="0.64002">
        <ele>1568.0476074219</ele>
        <time>2011-06-14T10:46:04Z</time>
      </trkpt>
      <trkpt lat="42.84101" lon="0.6398">
        <ele>1564.2023925781</ele>
        <time>2011-06-14T10:46:11Z</time>
      </trkpt>
      <trkpt lat="42.841" lon="0.63957">
        <ele>1561.318359375</ele>
        <time>2011-06-14T10:46:18Z</time>
      </trkpt>
      <trkpt lat="42.84098" lon="0.63938">
        <ele>1559.3957519531</ele>
        <time>2011-06-14T10:46:24Z</time>
      </trkpt>
      <trkpt lat="42.84097" lon="0.63935">
        <ele>1558.9150390625</ele>
        <time>2011-06-14T10:46:26Z</time>
      </trkpt>
      <trkpt lat="42.84094" lon="0.63925">
        <ele>1557.4731445312</ele>
        <time>2011-06-14T10:46:31Z</time>
      </trkpt>
      <trkpt lat="42.84093" lon="0.63923">
        <ele>1556.9924316406</ele>
        <time>2011-06-14T10:46:33Z</time>
      </trkpt>
      <trkpt lat="42.84091" lon="0.63917">
        <ele>1556.51171875</ele>
        <time>2011-06-14T10:46:39Z</time>
      </trkpt>
      <trkpt lat="42.84091" lon="0.63916">
        <ele>1556.0310058594</ele>
        <time>2011-06-14T10:46:44Z</time>
      </trkpt>
      <trkpt lat="42.84088" lon="0.63896">
        <ele>1553.6279296875</ele>
        <time>2011-06-14T10:46:50Z</time>
      </trkpt>
      <trkpt lat="42.84086" lon="0.63876">
        <ele>1550.2634277344</ele>
        <time>2011-06-14T10:46:56Z</time>
      </trkpt>
      <trkpt lat="42.84084" lon="0.63855">
        <ele>1546.8984375</ele>
        <time>2011-06-14T10:47:03Z</time>
      </trkpt>
      <trkpt lat="42.84081" lon="0.63842">
        <ele>1542.5727539062</ele>
        <time>2011-06-14T10:47:08Z</time>
      </trkpt>
      <trkpt lat="42.84077" lon="0.63829">
        <ele>1536.8046875</ele>
        <time>2011-06-14T10:47:14Z</time>
      </trkpt>
      <trkpt lat="42.84072" lon="0.63818">
        <ele>1531.998046875</ele>
        <time>2011-06-14T10:47:21Z</time>
      </trkpt>
      <trkpt lat="42.84067" lon="0.63807">
        <ele>1528.1528320312</ele>
        <time>2011-06-14T10:47:27Z</time>
      </trkpt>
      <trkpt lat="42.84065" lon="0.63803">
        <ele>1526.2302246094</ele>
        <time>2011-06-14T10:47:29Z</time>
      </trkpt>
      <trkpt lat="42.84061" lon="0.63792">
        <ele>1522.3850097656</ele>
        <time>2011-06-14T10:47:35Z</time>
      </trkpt>
      <trkpt lat="42.84055" lon="0.63781">
        <ele>1519.0205078125</ele>
        <time>2011-06-14T10:47:40Z</time>
      </trkpt>
      <trkpt lat="42.84053" lon="0.63775">
        <ele>1517.5783691406</ele>
        <time>2011-06-14T10:47:44Z</time>
      </trkpt>
      <trkpt lat="42.84052" lon="0.63763">
        <ele>1514.6943359375</ele>
        <time>2011-06-14T10:47:52Z</time>
      </trkpt>
      <trkpt lat="42.84051" lon="0.63751">
        <ele>1514.2136230469</ele>
        <time>2011-06-14T10:47:59Z</time>
      </trkpt>
      <trkpt lat="42.84051" lon="0.6374">
        <ele>1512.7717285156</ele>
        <time>2011-06-14T10:48:06Z</time>
      </trkpt>
      <trkpt lat="42.8405" lon="0.63731">
        <ele>1510.8491210938</ele>
        <time>2011-06-14T10:48:12Z</time>
      </trkpt>
      <trkpt lat="42.84048" lon="0.63718">
        <ele>1509.4072265625</ele>
        <time>2011-06-14T10:48:20Z</time>
      </trkpt>
      <trkpt lat="42.84046" lon="0.63705">
        <ele>1507.4846191406</ele>
        <time>2011-06-14T10:48:28Z</time>
      </trkpt>
      <trkpt lat="42.84044" lon="0.63692">
        <ele>1505.5620117188</ele>
        <time>2011-06-14T10:48:34Z</time>
      </trkpt>
      <trkpt lat="42.84042" lon="0.63679">
        <ele>1503.1586914062</ele>
        <time>2011-06-14T10:48:39Z</time>
      </trkpt>
      <trkpt lat="42.84043" lon="0.63667">
        <ele>1501.2360839844</ele>
        <time>2011-06-14T10:48:43Z</time>
      </trkpt>
      <trkpt lat="42.84045" lon="0.63645">
        <ele>1496.4294433594</ele>
        <time>2011-06-14T10:48:50Z</time>
      </trkpt>
      <trkpt lat="42.84045" lon="0.63631">
        <ele>1494.0261230469</ele>
        <time>2011-06-14T10:48:56Z</time>
      </trkpt>
      <trkpt lat="42.84047" lon="0.63615">
        <ele>1491.6228027344</ele>
        <time>2011-06-14T10:49:02Z</time>
      </trkpt>
      <trkpt lat="42.8405" lon="0.636">
        <ele>1489.7001953125</ele>
        <time>2011-06-14T10:49:10Z</time>
      </trkpt>
      <trkpt lat="42.8405" lon="0.63598">
        <ele>1489.7001953125</ele>
        <time>2011-06-14T10:49:11Z</time>
      </trkpt>
      <trkpt lat="42.84052" lon="0.63585">
        <ele>1487.296875</ele>
        <time>2011-06-14T10:49:17Z</time>
      </trkpt>
      <trkpt lat="42.84053" lon="0.63576">
        <ele>1485.3742675781</ele>
        <time>2011-06-14T10:49:20Z</time>
      </trkpt>
      <trkpt lat="42.84054" lon="0.63558">
        <ele>1482.970703125</ele>
        <time>2011-06-14T10:49:27Z</time>
      </trkpt>
      <trkpt lat="42.84054" lon="0.63553">
        <ele>1482.0095214844</ele>
        <time>2011-06-14T10:49:30Z</time>
      </trkpt>
      <trkpt lat="42.84054" lon="0.63543">
        <ele>1479.6062011719</ele>
        <time>2011-06-14T10:49:35Z</time>
      </trkpt>
      <trkpt lat="42.84056" lon="0.63529">
        <ele>1476.7224121094</ele>
        <time>2011-06-14T10:49:41Z</time>
      </trkpt>
      <trkpt lat="42.84058" lon="0.63524">
        <ele>1475.2802734375</ele>
        <time>2011-06-14T10:49:44Z</time>
      </trkpt>
      <trkpt lat="42.84057" lon="0.63508">
        <ele>1473.3579101562</ele>
        <time>2011-06-14T10:49:49Z</time>
      </trkpt>
      <trkpt lat="42.84054" lon="0.63498">
        <ele>1469.5126953125</ele>
        <time>2011-06-14T10:49:55Z</time>
      </trkpt>
      <trkpt lat="42.84053" lon="0.6349">
        <ele>1467.1091308594</ele>
        <time>2011-06-14T10:49:58Z</time>
      </trkpt>
      <trkpt lat="42.84048" lon="0.6347">
        <ele>1464.2250976562</ele>
        <time>2011-06-14T10:50:05Z</time>
      </trkpt>
      <trkpt lat="42.84047" lon="0.63458">
        <ele>1461.8220214844</ele>
        <time>2011-06-14T10:50:11Z</time>
      </trkpt>
      <trkpt lat="42.84048" lon="0.63454">
        <ele>1461.8220214844</ele>
        <time>2011-06-14T10:50:15Z</time>
      </trkpt>
      <trkpt lat="42.84048" lon="0.63452">
        <ele>1461.3413085938</ele>
        <time>2011-06-14T10:50:16Z</time>
      </trkpt>
      <trkpt lat="42.84055" lon="0.63434">
        <ele>1457.9768066406</ele>
        <time>2011-06-14T10:50:23Z</time>
      </trkpt>
      <trkpt lat="42.84057" lon="0.63422">
        <ele>1456.5346679688</ele>
        <time>2011-06-14T10:50:27Z</time>
      </trkpt>
      <trkpt lat="42.84061" lon="0.6341">
        <ele>1454.6120605469</ele>
        <time>2011-06-14T10:50:31Z</time>
      </trkpt>
      <trkpt lat="42.84069" lon="0.63396">
        <ele>1452.2087402344</ele>
        <time>2011-06-14T10:50:37Z</time>
      </trkpt>
      <trkpt lat="42.8407" lon="0.63396">
        <ele>1452.2087402344</ele>
        <time>2011-06-14T10:50:38Z</time>
      </trkpt>
      <trkpt lat="42.84072" lon="0.63391">
        <ele>1451.2473144531</ele>
        <time>2011-06-14T10:50:42Z</time>
      </trkpt>
      <trkpt lat="42.84079" lon="0.63384">
        <ele>1448.36328125</ele>
        <time>2011-06-14T10:50:50Z</time>
      </trkpt>
      <trkpt lat="42.84078" lon="0.63381">
        <ele>1447.4020996094</ele>
        <time>2011-06-14T10:50:55Z</time>
      </trkpt>
      <trkpt lat="42.84076" lon="0.6338">
        <ele>1446.9213867188</ele>
        <time>2011-06-14T10:50:58Z</time>
      </trkpt>
      <trkpt lat="42.84089" lon="0.63376">
        <ele>1451.7280273438</ele>
        <time>2011-06-14T11:10:18Z</time>
      </trkpt>
      <trkpt lat="42.8409" lon="0.63376">
        <ele>1451.7280273438</ele>
        <time>2011-06-14T11:10:19Z</time>
      </trkpt>
      <trkpt lat="42.84092" lon="0.63372">
        <ele>1451.2473144531</ele>
        <time>2011-06-14T11:10:21Z</time>
      </trkpt>
      <trkpt lat="42.84103" lon="0.63371">
        <ele>1448.8439941406</ele>
        <time>2011-06-14T11:10:30Z</time>
      </trkpt>
      <trkpt lat="42.84111" lon="0.63372">
        <ele>1444.9987792969</ele>
        <time>2011-06-14T11:10:36Z</time>
      </trkpt>
      <trkpt lat="42.84119" lon="0.63371">
        <ele>1443.5568847656</ele>
        <time>2011-06-14T11:10:42Z</time>
      </trkpt>
      <trkpt lat="42.84124" lon="0.63371">
        <ele>1442.595703125</ele>
        <time>2011-06-14T11:10:46Z</time>
      </trkpt>
      <trkpt lat="42.84134" lon="0.63374">
        <ele>1442.595703125</ele>
        <time>2011-06-14T11:10:53Z</time>
      </trkpt>
      <trkpt lat="42.84142" lon="0.63382">
        <ele>1440.6728515625</ele>
        <time>2011-06-14T11:10:58Z</time>
      </trkpt>
      <trkpt lat="42.8415" lon="0.63389">
        <ele>1438.7504882812</ele>
        <time>2011-06-14T11:11:02Z</time>
      </trkpt>
      <trkpt lat="42.84156" lon="0.63399">
        <ele>1437.3083496094</ele>
        <time>2011-06-14T11:11:06Z</time>
      </trkpt>
      <trkpt lat="42.84161" lon="0.63415">
        <ele>1434.4243164062</ele>
        <time>2011-06-14T11:11:11Z</time>
      </trkpt>
      <trkpt lat="42.84164" lon="0.63427">
        <ele>1433.462890625</ele>
        <time>2011-06-14T11:11:14Z</time>
      </trkpt>
      <trkpt lat="42.84171" lon="0.63452">
        <ele>1430.5791015625</ele>
        <time>2011-06-14T11:11:21Z</time>
      </trkpt>
      <trkpt lat="42.84179" lon="0.63468">
        <ele>1430.0983886719</ele>
        <time>2011-06-14T11:11:26Z</time>
      </trkpt>
      <trkpt lat="42.84182" lon="0.63475">
        <ele>1429.6176757812</ele>
        <time>2011-06-14T11:11:28Z</time>
      </trkpt>
      <trkpt lat="42.84184" lon="0.63486">
        <ele>1428.17578125</ele>
        <time>2011-06-14T11:11:31Z</time>
      </trkpt>
      <trkpt lat="42.84195" lon="0.63498">
        <ele>1425.7724609375</ele>
        <time>2011-06-14T11:11:36Z</time>
      </trkpt>
      <trkpt lat="42.84207" lon="0.63506">
        <ele>1425.2917480469</ele>
        <time>2011-06-14T11:11:41Z</time>
      </trkpt>
      <trkpt lat="42.84218" lon="0.63511">
        <ele>1425.2917480469</ele>
        <time>2011-06-14T11:11:45Z</time>
      </trkpt>
      <trkpt lat="42.84228" lon="0.63515">
        <ele>1426.2531738281</ele>
        <time>2011-06-14T11:11:49Z</time>
      </trkpt>
      <trkpt lat="42.84238" lon="0.63517">
        <ele>1426.2531738281</ele>
        <time>2011-06-14T11:11:53Z</time>
      </trkpt>
      <trkpt lat="42.84249" lon="0.63521">
        <ele>1426.7338867188</ele>
        <time>2011-06-14T11:11:58Z</time>
      </trkpt>
      <trkpt lat="42.84263" lon="0.63527">
        <ele>1425.2917480469</ele>
        <time>2011-06-14T11:12:03Z</time>
      </trkpt>
      <trkpt lat="42.84277" lon="0.63534">
        <ele>1423.3693847656</ele>
        <time>2011-06-14T11:12:09Z</time>
      </trkpt>
      <trkpt lat="42.84287" lon="0.63543">
        <ele>1420.4853515625</ele>
        <time>2011-06-14T11:12:13Z</time>
      </trkpt>
      <trkpt lat="42.84299" lon="0.63556">
        <ele>1417.6010742188</ele>
        <time>2011-06-14T11:12:18Z</time>
      </trkpt>
      <trkpt lat="42.84306" lon="0.6357">
        <ele>1414.7172851562</ele>
        <time>2011-06-14T11:12:23Z</time>
      </trkpt>
      <trkpt lat="42.84311" lon="0.63575">
        <ele>1412.3139648438</ele>
        <time>2011-06-14T11:12:26Z</time>
      </trkpt>
      <trkpt lat="42.84334" lon="0.63576">
        <ele>1410.3913574219</ele>
        <time>2011-06-14T11:12:33Z</time>
      </trkpt>
      <trkpt lat="42.84349" lon="0.63569">
        <ele>1411.8334960938</ele>
        <time>2011-06-14T11:12:39Z</time>
      </trkpt>
      <trkpt lat="42.84363" lon="0.63563">
        <ele>1411.3527832031</ele>
        <time>2011-06-14T11:12:44Z</time>
      </trkpt>
      <trkpt lat="42.84376" lon="0.63557">
        <ele>1413.275390625</ele>
        <time>2011-06-14T11:12:49Z</time>
      </trkpt>
      <trkpt lat="42.84391" lon="0.63552">
        <ele>1415.1979980469</ele>
        <time>2011-06-14T11:12:55Z</time>
      </trkpt>
      <trkpt lat="42.84406" lon="0.63553">
        <ele>1414.7172851562</ele>
        <time>2011-06-14T11:13:00Z</time>
      </trkpt>
      <trkpt lat="42.84421" lon="0.63551">
        <ele>1413.275390625</ele>
        <time>2011-06-14T11:13:05Z</time>
      </trkpt>
      <trkpt lat="42.84435" lon="0.63547">
        <ele>1407.98828125</ele>
        <time>2011-06-14T11:13:10Z</time>
      </trkpt>
      <trkpt lat="42.8445" lon="0.63544">
        <ele>1405.1042480469</ele>
        <time>2011-06-14T11:13:15Z</time>
      </trkpt>
      <trkpt lat="42.84464" lon="0.63544">
        <ele>1404.1430664062</ele>
        <time>2011-06-14T11:13:20Z</time>
      </trkpt>
      <trkpt lat="42.84477" lon="0.63548">
        <ele>1404.6235351562</ele>
        <time>2011-06-14T11:13:25Z</time>
      </trkpt>
      <trkpt lat="42.84493" lon="0.63555">
        <ele>1403.1813964844</ele>
        <time>2011-06-14T11:13:31Z</time>
      </trkpt>
      <trkpt lat="42.84501" lon="0.63561">
        <ele>1401.7395019531</ele>
        <time>2011-06-14T11:13:34Z</time>
      </trkpt>
      <trkpt lat="42.84511" lon="0.63572">
        <ele>1398.3747558594</ele>
        <time>2011-06-14T11:13:39Z</time>
      </trkpt>
      <trkpt lat="42.84525" lon="0.63587">
        <ele>1395.0102539062</ele>
        <time>2011-06-14T11:13:45Z</time>
      </trkpt>
      <trkpt lat="42.84533" lon="0.63594">
        <ele>1393.0876464844</ele>
        <time>2011-06-14T11:13:49Z</time>
      </trkpt>
      <trkpt lat="42.84543" lon="0.63598">
        <ele>1391.6457519531</ele>
        <time>2011-06-14T11:13:55Z</time>
      </trkpt>
      <trkpt lat="42.84553" lon="0.63602">
        <ele>1390.6843261719</ele>
        <time>2011-06-14T11:14:02Z</time>
      </trkpt>
      <trkpt lat="42.84563" lon="0.63604">
        <ele>1390.6843261719</ele>
        <time>2011-06-14T11:14:08Z</time>
      </trkpt>
      <trkpt lat="42.8457" lon="0.63609">
        <ele>1390.6843261719</ele>
        <time>2011-06-14T11:14:13Z</time>
      </trkpt>
      <trkpt lat="42.84572" lon="0.63618">
        <ele>1390.6843261719</ele>
        <time>2011-06-14T11:14:18Z</time>
      </trkpt>
      <trkpt lat="42.84573" lon="0.6363">
        <ele>1391.1650390625</ele>
        <time>2011-06-14T11:14:25Z</time>
      </trkpt>
      <trkpt lat="42.84572" lon="0.63638">
        <ele>1391.1650390625</ele>
        <time>2011-06-14T11:14:30Z</time>
      </trkpt>
      <trkpt lat="42.84571" lon="0.63651">
        <ele>1389.7231445312</ele>
        <time>2011-06-14T11:14:38Z</time>
      </trkpt>
      <trkpt lat="42.84572" lon="0.63653">
        <ele>1389.7231445312</ele>
        <time>2011-06-14T11:14:39Z</time>
      </trkpt>
      <trkpt lat="42.84573" lon="0.63668">
        <ele>1391.1650390625</ele>
        <time>2011-06-14T11:14:48Z</time>
      </trkpt>
      <trkpt lat="42.84568" lon="0.63678">
        <ele>1391.6457519531</ele>
        <time>2011-06-14T11:14:54Z</time>
      </trkpt>
      <trkpt lat="42.84563" lon="0.6369">
        <ele>1391.1650390625</ele>
        <time>2011-06-14T11:15:01Z</time>
      </trkpt>
      <trkpt lat="42.84561" lon="0.63699">
        <ele>1390.6843261719</ele>
        <time>2011-06-14T11:15:07Z</time>
      </trkpt>
      <trkpt lat="42.84557" lon="0.6371">
        <ele>1391.6457519531</ele>
        <time>2011-06-14T11:15:13Z</time>
      </trkpt>
      <trkpt lat="42.84546" lon="0.63727">
        <ele>1392.6071777344</ele>
        <time>2011-06-14T11:15:23Z</time>
      </trkpt>
      <trkpt lat="42.84541" lon="0.6374">
        <ele>1394.5295410156</ele>
        <time>2011-06-14T11:15:31Z</time>
      </trkpt>
      <trkpt lat="42.84536" lon="0.6375">
        <ele>1393.0876464844</ele>
        <time>2011-06-14T11:15:38Z</time>
      </trkpt>
      <trkpt lat="42.84528" lon="0.63759">
        <ele>1389.7231445312</ele>
        <time>2011-06-14T11:15:44Z</time>
      </trkpt>
      <trkpt lat="42.84521" lon="0.6377">
        <ele>1387.8002929688</ele>
        <time>2011-06-14T11:15:50Z</time>
      </trkpt>
      <trkpt lat="42.84516" lon="0.63784">
        <ele>1387.3195800781</ele>
        <time>2011-06-14T11:15:58Z</time>
      </trkpt>
      <trkpt lat="42.84515" lon="0.63794">
        <ele>1386.3583984375</ele>
        <time>2011-06-14T11:16:04Z</time>
      </trkpt>
      <trkpt lat="42.84515" lon="0.63801">
        <ele>1387.8002929688</ele>
        <time>2011-06-14T11:16:08Z</time>
      </trkpt>
      <trkpt lat="42.84524" lon="0.63815">
        <ele>1394.5295410156</ele>
        <time>2011-06-14T11:16:14Z</time>
      </trkpt>
      <trkpt lat="42.84525" lon="0.63827">
        <ele>1397.4135742188</ele>
        <time>2011-06-14T11:16:20Z</time>
      </trkpt>
      <trkpt lat="42.84529" lon="0.63838">
        <ele>1401.7395019531</ele>
        <time>2011-06-14T11:16:25Z</time>
      </trkpt>
      <trkpt lat="42.84538" lon="0.63851">
        <ele>1409.9106445312</ele>
        <time>2011-06-14T11:16:31Z</time>
      </trkpt>
      <trkpt lat="42.84541" lon="0.6386">
        <ele>1413.275390625</ele>
        <time>2011-06-14T11:16:35Z</time>
      </trkpt>
      <trkpt lat="42.84533" lon="0.63875">
        <ele>1407.0268554688</ele>
        <time>2011-06-14T11:16:41Z</time>
      </trkpt>
      <trkpt lat="42.84522" lon="0.6389">
        <ele>1400.7780761719</ele>
        <time>2011-06-14T11:16:45Z</time>
      </trkpt>
      <trkpt lat="42.84516" lon="0.63904">
        <ele>1395.4909667969</ele>
        <time>2011-06-14T11:16:49Z</time>
      </trkpt>
      <trkpt lat="42.84504" lon="0.63926">
        <ele>1390.2038574219</ele>
        <time>2011-06-14T11:16:55Z</time>
      </trkpt>
      <trkpt lat="42.84502" lon="0.6393">
        <ele>1390.2038574219</ele>
        <time>2011-06-14T11:16:56Z</time>
      </trkpt>
      <trkpt lat="42.84501" lon="0.63946">
        <ele>1388.7619628906</ele>
        <time>2011-06-14T11:17:00Z</time>
      </trkpt>
      <trkpt lat="42.845" lon="0.63957">
        <ele>1389.2424316406</ele>
        <time>2011-06-14T11:17:03Z</time>
      </trkpt>
      <trkpt lat="42.84498" lon="0.63965">
        <ele>1390.2038574219</ele>
        <time>2011-06-14T11:17:05Z</time>
      </trkpt>
      <trkpt lat="42.84497" lon="0.63985">
        <ele>1389.2424316406</ele>
        <time>2011-06-14T11:17:10Z</time>
      </trkpt>
      <trkpt lat="42.84502" lon="0.63993">
        <ele>1387.3195800781</ele>
        <time>2011-06-14T11:17:13Z</time>
      </trkpt>
      <trkpt lat="42.84515" lon="0.63997">
        <ele>1386.3583984375</ele>
        <time>2011-06-14T11:17:17Z</time>
      </trkpt>
      <trkpt lat="42.84532" lon="0.63998">
        <ele>1382.9936523438</ele>
        <time>2011-06-14T11:17:22Z</time>
      </trkpt>
      <trkpt lat="42.8455" lon="0.64001">
        <ele>1383.4743652344</ele>
        <time>2011-06-14T11:17:27Z</time>
      </trkpt>
      <trkpt lat="42.84562" lon="0.64006">
        <ele>1383.4743652344</ele>
        <time>2011-06-14T11:17:31Z</time>
      </trkpt>
      <trkpt lat="42.84575" lon="0.6401">
        <ele>1384.4357910156</ele>
        <time>2011-06-14T11:17:36Z</time>
      </trkpt>
      <trkpt lat="42.84585" lon="0.64014">
        <ele>1384.4357910156</ele>
        <time>2011-06-14T11:17:40Z</time>
      </trkpt>
      <trkpt lat="42.84593" lon="0.64021">
        <ele>1382.9936523438</ele>
        <time>2011-06-14T11:17:44Z</time>
      </trkpt>
      <trkpt lat="42.84602" lon="0.64031">
        <ele>1381.5517578125</ele>
        <time>2011-06-14T11:17:49Z</time>
      </trkpt>
      <trkpt lat="42.84611" lon="0.6404">
        <ele>1381.0712890625</ele>
        <time>2011-06-14T11:17:53Z</time>
      </trkpt>
      <trkpt lat="42.84615" lon="0.64045">
        <ele>1380.5905761719</ele>
        <time>2011-06-14T11:17:55Z</time>
      </trkpt>
      <trkpt lat="42.84624" lon="0.64053">
        <ele>1379.1484375</ele>
        <time>2011-06-14T11:17:59Z</time>
      </trkpt>
      <trkpt lat="42.84626" lon="0.64056">
        <ele>1379.1484375</ele>
        <time>2011-06-14T11:18:00Z</time>
      </trkpt>
      <trkpt lat="42.84644" lon="0.64076">
        <ele>1377.7065429688</ele>
        <time>2011-06-14T11:18:08Z</time>
      </trkpt>
      <trkpt lat="42.84647" lon="0.6409">
        <ele>1378.1872558594</ele>
        <time>2011-06-14T11:18:12Z</time>
      </trkpt>
      <trkpt lat="42.84647" lon="0.64093">
        <ele>1379.1484375</ele>
        <time>2011-06-14T11:18:13Z</time>
      </trkpt>
      <trkpt lat="42.84653" lon="0.64112">
        <ele>1379.6291503906</ele>
        <time>2011-06-14T11:18:18Z</time>
      </trkpt>
      <trkpt lat="42.84657" lon="0.64127">
        <ele>1377.7065429688</ele>
        <time>2011-06-14T11:18:22Z</time>
      </trkpt>
      <trkpt lat="42.84662" lon="0.64143">
        <ele>1375.3032226562</ele>
        <time>2011-06-14T11:18:27Z</time>
      </trkpt>
      <trkpt lat="42.8467" lon="0.64153">
        <ele>1374.8227539062</ele>
        <time>2011-06-14T11:18:31Z</time>
      </trkpt>
      <trkpt lat="42.84682" lon="0.6416">
        <ele>1374.3420410156</ele>
        <time>2011-06-14T11:18:36Z</time>
      </trkpt>
      <trkpt lat="42.84692" lon="0.64166">
        <ele>1374.3420410156</ele>
        <time>2011-06-14T11:18:40Z</time>
      </trkpt>
      <trkpt lat="42.84703" lon="0.64182">
        <ele>1373.861328125</ele>
        <time>2011-06-14T11:18:46Z</time>
      </trkpt>
      <trkpt lat="42.84708" lon="0.64199">
        <ele>1372.9001464844</ele>
        <time>2011-06-14T11:18:51Z</time>
      </trkpt>
      <trkpt lat="42.84708" lon="0.64215">
        <ele>1370.9772949219</ele>
        <time>2011-06-14T11:18:56Z</time>
      </trkpt>
      <trkpt lat="42.84708" lon="0.64217">
        <ele>1370.4965820312</ele>
        <time>2011-06-14T11:18:57Z</time>
      </trkpt>
      <trkpt lat="42.8471" lon="0.64228">
        <ele>1369.0546875</ele>
        <time>2011-06-14T11:19:03Z</time>
      </trkpt>
      <trkpt lat="42.8471" lon="0.64231">
        <ele>1369.0546875</ele>
        <time>2011-06-14T11:19:04Z</time>
      </trkpt>
      <trkpt lat="42.84709" lon="0.64244">
        <ele>1367.1320800781</ele>
        <time>2011-06-14T11:19:12Z</time>
      </trkpt>
      <trkpt lat="42.84706" lon="0.64256">
        <ele>1365.6901855469</ele>
        <time>2011-06-14T11:19:19Z</time>
      </trkpt>
      <trkpt lat="42.84698" lon="0.64267">
        <ele>1365.2094726562</ele>
        <time>2011-06-14T11:19:25Z</time>
      </trkpt>
      <trkpt lat="42.84694" lon="0.64272">
        <ele>1364.248046875</ele>
        <time>2011-06-14T11:19:28Z</time>
      </trkpt>
      <trkpt lat="42.84685" lon="0.6428">
        <ele>1361.3642578125</ele>
        <time>2011-06-14T11:19:34Z</time>
      </trkpt>
      <trkpt lat="42.84674" lon="0.64293">
        <ele>1357.0383300781</ele>
        <time>2011-06-14T11:19:43Z</time>
      </trkpt>
      <trkpt lat="42.84669" lon="0.64304">
        <ele>1356.0769042969</ele>
        <time>2011-06-14T11:19:49Z</time>
      </trkpt>
      <trkpt lat="42.84671" lon="0.64315">
        <ele>1357.5190429688</ele>
        <time>2011-06-14T11:19:54Z</time>
      </trkpt>
      <trkpt lat="42.84688" lon="0.64332">
        <ele>1366.1706542969</ele>
        <time>2011-06-14T11:20:02Z</time>
      </trkpt>
      <trkpt lat="42.84692" lon="0.64341">
        <ele>1365.2094726562</ele>
        <time>2011-06-14T11:20:08Z</time>
      </trkpt>
      <trkpt lat="42.847" lon="0.64357">
        <ele>1366.1706542969</ele>
        <time>2011-06-14T11:20:17Z</time>
      </trkpt>
      <trkpt lat="42.84704" lon="0.64367">
        <ele>1365.2094726562</ele>
        <time>2011-06-14T11:20:23Z</time>
      </trkpt>
      <trkpt lat="42.84708" lon="0.64378">
        <ele>1363.7673339844</ele>
        <time>2011-06-14T11:20:29Z</time>
      </trkpt>
      <trkpt lat="42.8471" lon="0.64386">
        <ele>1361.8449707031</ele>
        <time>2011-06-14T11:20:34Z</time>
      </trkpt>
      <trkpt lat="42.84716" lon="0.64396">
        <ele>1363.2868652344</ele>
        <time>2011-06-14T11:20:40Z</time>
      </trkpt>
      <trkpt lat="42.84718" lon="0.64407">
        <ele>1362.8061523438</ele>
        <time>2011-06-14T11:20:43Z</time>
      </trkpt>
      <trkpt lat="42.84724" lon="0.64427">
        <ele>1362.3254394531</ele>
        <time>2011-06-14T11:20:48Z</time>
      </trkpt>
      <trkpt lat="42.84727" lon="0.64441">
        <ele>1362.3254394531</ele>
        <time>2011-06-14T11:20:52Z</time>
      </trkpt>
      <trkpt lat="42.84728" lon="0.64445">
        <ele>1362.3254394531</ele>
        <time>2011-06-14T11:20:53Z</time>
      </trkpt>
      <trkpt lat="42.8473" lon="0.64457">
        <ele>1362.3254394531</ele>
        <time>2011-06-14T11:20:56Z</time>
      </trkpt>
      <trkpt lat="42.8473" lon="0.64475">
        <ele>1362.3254394531</ele>
        <time>2011-06-14T11:21:01Z</time>
      </trkpt>
      <trkpt lat="42.84729" lon="0.6448">
        <ele>1362.8061523438</ele>
        <time>2011-06-14T11:21:02Z</time>
      </trkpt>
      <trkpt lat="42.84724" lon="0.645">
        <ele>1362.8061523438</ele>
        <time>2011-06-14T11:21:07Z</time>
      </trkpt>
      <trkpt lat="42.84724" lon="0.6452">
        <ele>1361.8449707031</ele>
        <time>2011-06-14T11:21:12Z</time>
      </trkpt>
      <trkpt lat="42.84719" lon="0.64544">
        <ele>1359.4416503906</ele>
        <time>2011-06-14T11:21:18Z</time>
      </trkpt>
      <trkpt lat="42.8472" lon="0.64547">
        <ele>1358.4802246094</ele>
        <time>2011-06-14T11:21:19Z</time>
      </trkpt>
      <trkpt lat="42.84715" lon="0.64562">
        <ele>1357.0383300781</ele>
        <time>2011-06-14T11:21:23Z</time>
      </trkpt>
      <trkpt lat="42.8471" lon="0.6458">
        <ele>1355.1154785156</ele>
        <time>2011-06-14T11:21:28Z</time>
      </trkpt>
      <trkpt lat="42.84706" lon="0.64595">
        <ele>1355.1154785156</ele>
        <time>2011-06-14T11:21:32Z</time>
      </trkpt>
      <trkpt lat="42.84705" lon="0.64599">
        <ele>1354.634765625</ele>
        <time>2011-06-14T11:21:33Z</time>
      </trkpt>
      <trkpt lat="42.84705" lon="0.64612">
        <ele>1352.2314453125</ele>
        <time>2011-06-14T11:21:37Z</time>
      </trkpt>
      <trkpt lat="42.84705" lon="0.64614">
        <ele>1352.2314453125</ele>
        <time>2011-06-14T11:21:38Z</time>
      </trkpt>
      <trkpt lat="42.84709" lon="0.64631">
        <ele>1358.4802246094</ele>
        <time>2011-06-14T11:21:47Z</time>
      </trkpt>
      <trkpt lat="42.84709" lon="0.64636">
        <ele>1358.4802246094</ele>
        <time>2011-06-14T11:21:50Z</time>
      </trkpt>
      <trkpt lat="42.84712" lon="0.64643">
        <ele>1362.3254394531</ele>
        <time>2011-06-14T11:21:54Z</time>
      </trkpt>
      <trkpt lat="42.84715" lon="0.64655">
        <ele>1367.6125488281</ele>
        <time>2011-06-14T11:22:00Z</time>
      </trkpt>
      <trkpt lat="42.84714" lon="0.64662">
        <ele>1366.1706542969</ele>
        <time>2011-06-14T11:22:04Z</time>
      </trkpt>
      <trkpt lat="42.84718" lon="0.64669">
        <ele>1363.7673339844</ele>
        <time>2011-06-14T11:22:10Z</time>
      </trkpt>
      <trkpt lat="42.84729" lon="0.64671">
        <ele>1364.7287597656</ele>
        <time>2011-06-14T11:22:18Z</time>
      </trkpt>
      <trkpt lat="42.84742" lon="0.64668">
        <ele>1364.248046875</ele>
        <time>2011-06-14T11:22:27Z</time>
      </trkpt>
      <trkpt lat="42.84753" lon="0.64667">
        <ele>1363.2868652344</ele>
        <time>2011-06-14T11:22:34Z</time>
      </trkpt>
      <trkpt lat="42.84761" lon="0.64667">
        <ele>1361.8449707031</ele>
        <time>2011-06-14T11:22:40Z</time>
      </trkpt>
      <trkpt lat="42.84771" lon="0.64667">
        <ele>1359.9221191406</ele>
        <time>2011-06-14T11:22:46Z</time>
      </trkpt>
      <trkpt lat="42.84783" lon="0.6467">
        <ele>1358.4802246094</ele>
        <time>2011-06-14T11:22:55Z</time>
      </trkpt>
      <trkpt lat="42.8479" lon="0.64673">
        <ele>1357.9997558594</ele>
        <time>2011-06-14T11:23:00Z</time>
      </trkpt>
      <trkpt lat="42.84793" lon="0.64677">
        <ele>1358.4802246094</ele>
        <time>2011-06-14T11:23:04Z</time>
      </trkpt>
      <trkpt lat="42.848" lon="0.64687">
        <ele>1358.4802246094</ele>
        <time>2011-06-14T11:23:10Z</time>
      </trkpt>
      <trkpt lat="42.84801" lon="0.64691">
        <ele>1358.9609375</ele>
        <time>2011-06-14T11:23:12Z</time>
      </trkpt>
      <trkpt lat="42.84806" lon="0.6471">
        <ele>1358.4802246094</ele>
        <time>2011-06-14T11:23:21Z</time>
      </trkpt>
      <trkpt lat="42.84813" lon="0.64726">
        <ele>1359.9221191406</ele>
        <time>2011-06-14T11:23:29Z</time>
      </trkpt>
      <trkpt lat="42.84815" lon="0.64741">
        <ele>1358.4802246094</ele>
        <time>2011-06-14T11:23:36Z</time>
      </trkpt>
      <trkpt lat="42.84814" lon="0.64751">
        <ele>1358.4802246094</ele>
        <time>2011-06-14T11:23:41Z</time>
      </trkpt>
      <trkpt lat="42.84813" lon="0.64762">
        <ele>1360.8835449219</ele>
        <time>2011-06-14T11:23:47Z</time>
      </trkpt>
      <trkpt lat="42.84814" lon="0.64768">
        <ele>1362.8061523438</ele>
        <time>2011-06-14T11:23:50Z</time>
      </trkpt>
      <trkpt lat="42.84813" lon="0.64778">
        <ele>1366.1706542969</ele>
        <time>2011-06-14T11:23:55Z</time>
      </trkpt>
      <trkpt lat="42.84811" lon="0.64784">
        <ele>1366.6513671875</ele>
        <time>2011-06-14T11:23:58Z</time>
      </trkpt>
      <trkpt lat="42.84814" lon="0.64796">
        <ele>1368.5739746094</ele>
        <time>2011-06-14T11:24:04Z</time>
      </trkpt>
      <trkpt lat="42.84822" lon="0.64813">
        <ele>1368.5739746094</ele>
        <time>2011-06-14T11:24:13Z</time>
      </trkpt>
      <trkpt lat="42.84822" lon="0.64815">
        <ele>1367.6125488281</ele>
        <time>2011-06-14T11:24:14Z</time>
      </trkpt>
      <trkpt lat="42.84824" lon="0.64824">
        <ele>1364.7287597656</ele>
        <time>2011-06-14T11:24:19Z</time>
      </trkpt>
      <trkpt lat="42.84826" lon="0.64833">
        <ele>1361.8449707031</ele>
        <time>2011-06-14T11:24:24Z</time>
      </trkpt>
      <trkpt lat="42.84834" lon="0.64846">
        <ele>1361.3642578125</ele>
        <time>2011-06-14T11:24:31Z</time>
      </trkpt>
      <trkpt lat="42.84839" lon="0.64851">
        <ele>1361.3642578125</ele>
        <time>2011-06-14T11:24:35Z</time>
      </trkpt>
      <trkpt lat="42.84845" lon="0.64848">
        <ele>1361.3642578125</ele>
        <time>2011-06-14T11:24:39Z</time>
      </trkpt>
      <trkpt lat="42.84849" lon="0.64836">
        <ele>1360.8835449219</ele>
        <time>2011-06-14T11:24:46Z</time>
      </trkpt>
      <trkpt lat="42.84855" lon="0.64823">
        <ele>1361.3642578125</ele>
        <time>2011-06-14T11:24:53Z</time>
      </trkpt>
      <trkpt lat="42.84857" lon="0.6481">
        <ele>1366.1706542969</ele>
        <time>2011-06-14T11:24:58Z</time>
      </trkpt>
      <trkpt lat="42.84859" lon="0.64799">
        <ele>1368.0932617188</ele>
        <time>2011-06-14T11:25:03Z</time>
      </trkpt>
      <trkpt lat="42.84867" lon="0.64794">
        <ele>1363.7673339844</ele>
        <time>2011-06-14T11:25:09Z</time>
      </trkpt>
      <trkpt lat="42.84871" lon="0.64789">
        <ele>1361.8449707031</ele>
        <time>2011-06-14T11:25:13Z</time>
      </trkpt>
      <trkpt lat="42.84872" lon="0.64788">
        <ele>1361.8449707031</ele>
        <time>2011-06-14T11:25:14Z</time>
      </trkpt>
      <trkpt lat="42.84882" lon="0.64779">
        <ele>1361.3642578125</ele>
        <time>2011-06-14T11:25:24Z</time>
      </trkpt>
      <trkpt lat="42.84882" lon="0.64759">
        <ele>1379.1484375</ele>
        <time>2011-06-14T11:25:32Z</time>
      </trkpt>
      <trkpt lat="42.84889" lon="0.64747">
        <ele>1382.5131835938</ele>
        <time>2011-06-14T11:25:38Z</time>
      </trkpt>
      <trkpt lat="42.84889" lon="0.64741">
        <ele>1386.8388671875</ele>
        <time>2011-06-14T11:25:40Z</time>
      </trkpt>
      <trkpt lat="42.84891" lon="0.64723">
        <ele>1400.2976074219</ele>
        <time>2011-06-14T11:25:47Z</time>
      </trkpt>
      <trkpt lat="42.84892" lon="0.6472">
        <ele>1399.8168945312</ele>
        <time>2011-06-14T11:25:49Z</time>
      </trkpt>
      <trkpt lat="42.84894" lon="0.64709">
        <ele>1403.1813964844</ele>
        <time>2011-06-14T11:25:54Z</time>
      </trkpt>
      <trkpt lat="42.84896" lon="0.647">
        <ele>1403.1813964844</ele>
        <time>2011-06-14T11:25:59Z</time>
      </trkpt>
      <trkpt lat="42.84898" lon="0.64693">
        <ele>1404.1430664062</ele>
        <time>2011-06-14T11:26:03Z</time>
      </trkpt>
      <trkpt lat="42.84901" lon="0.64684">
        <ele>1403.1813964844</ele>
        <time>2011-06-14T11:26:08Z</time>
      </trkpt>
      <trkpt lat="42.84904" lon="0.64673">
        <ele>1400.2976074219</ele>
        <time>2011-06-14T11:26:13Z</time>
      </trkpt>
      <trkpt lat="42.8491" lon="0.6466">
        <ele>1390.2038574219</ele>
        <time>2011-06-14T11:26:18Z</time>
      </trkpt>
      <trkpt lat="42.84912" lon="0.64651">
        <ele>1384.9165039062</ele>
        <time>2011-06-14T11:26:21Z</time>
      </trkpt>
      <trkpt lat="42.84919" lon="0.64635">
        <ele>1374.8227539062</ele>
        <time>2011-06-14T11:26:26Z</time>
      </trkpt>
      <trkpt lat="42.84925" lon="0.64623">
        <ele>1370.0158691406</ele>
        <time>2011-06-14T11:26:30Z</time>
      </trkpt>
      <trkpt lat="42.8493" lon="0.64605">
        <ele>1363.2868652344</ele>
        <time>2011-06-14T11:26:35Z</time>
      </trkpt>
      <trkpt lat="42.84935" lon="0.64588">
        <ele>1356.5576171875</ele>
        <time>2011-06-14T11:26:40Z</time>
      </trkpt>
      <trkpt lat="42.84937" lon="0.64567">
        <ele>1358.4802246094</ele>
        <time>2011-06-14T11:26:45Z</time>
      </trkpt>
      <trkpt lat="42.84938" lon="0.64549">
        <ele>1354.154296875</ele>
        <time>2011-06-14T11:26:50Z</time>
      </trkpt>
      <trkpt lat="42.84937" lon="0.64528">
        <ele>1355.5961914062</ele>
        <time>2011-06-14T11:26:55Z</time>
      </trkpt>
      <trkpt lat="42.84939" lon="0.64516">
        <ele>1351.7509765625</ele>
        <time>2011-06-14T11:26:59Z</time>
      </trkpt>
      <trkpt lat="42.8494" lon="0.64507">
        <ele>1349.8283691406</ele>
        <time>2011-06-14T11:27:04Z</time>
      </trkpt>
      <trkpt lat="42.8494" lon="0.64498">
        <ele>1348.8669433594</ele>
        <time>2011-06-14T11:27:10Z</time>
      </trkpt>
      <trkpt lat="42.8494" lon="0.64495">
        <ele>1349.34765625</ele>
        <time>2011-06-14T11:27:12Z</time>
      </trkpt>
      <trkpt lat="42.8494" lon="0.64486">
        <ele>1349.8283691406</ele>
        <time>2011-06-14T11:27:17Z</time>
      </trkpt>
      <trkpt lat="42.8494" lon="0.64477">
        <ele>1352.7121582031</ele>
        <time>2011-06-14T11:27:21Z</time>
      </trkpt>
      <trkpt lat="42.84938" lon="0.64465">
        <ele>1354.634765625</ele>
        <time>2011-06-14T11:27:28Z</time>
      </trkpt>
      <trkpt lat="42.84939" lon="0.64457">
        <ele>1353.1928710938</ele>
        <time>2011-06-14T11:27:32Z</time>
      </trkpt>
      <trkpt lat="42.84941" lon="0.64449">
        <ele>1351.7509765625</ele>
        <time>2011-06-14T11:27:37Z</time>
      </trkpt>
      <trkpt lat="42.84942" lon="0.64445">
        <ele>1350.7895507812</ele>
        <time>2011-06-14T11:27:40Z</time>
      </trkpt>
      <trkpt lat="42.84945" lon="0.64436">
        <ele>1348.8669433594</ele>
        <time>2011-06-14T11:27:48Z</time>
      </trkpt>
      <trkpt lat="42.84949" lon="0.64425">
        <ele>1345.9831542969</ele>
        <time>2011-06-14T11:27:56Z</time>
      </trkpt>
      <trkpt lat="42.84952" lon="0.64412">
        <ele>1348.8669433594</ele>
        <time>2011-06-14T11:28:03Z</time>
      </trkpt>
      <trkpt lat="42.84953" lon="0.64409">
        <ele>1348.3862304688</ele>
        <time>2011-06-14T11:28:05Z</time>
      </trkpt>
      <trkpt lat="42.84956" lon="0.64402">
        <ele>1346.9443359375</ele>
        <time>2011-06-14T11:28:10Z</time>
      </trkpt>
      <trkpt lat="42.84961" lon="0.64388">
        <ele>1346.9443359375</ele>
        <time>2011-06-14T11:28:18Z</time>
      </trkpt>
      <trkpt lat="42.84963" lon="0.64372">
        <ele>1348.3862304688</ele>
        <time>2011-06-14T11:28:26Z</time>
      </trkpt>
      <trkpt lat="42.84964" lon="0.64365">
        <ele>1350.3090820312</ele>
        <time>2011-06-14T11:28:30Z</time>
      </trkpt>
      <trkpt lat="42.84967" lon="0.64345">
        <ele>1355.5961914062</ele>
        <time>2011-06-14T11:28:37Z</time>
      </trkpt>
      <trkpt lat="42.84967" lon="0.64326">
        <ele>1362.3254394531</ele>
        <time>2011-06-14T11:28:41Z</time>
      </trkpt>
      <trkpt lat="42.84971" lon="0.64306">
        <ele>1364.7287597656</ele>
        <time>2011-06-14T11:28:46Z</time>
      </trkpt>
      <trkpt lat="42.84974" lon="0.64299">
        <ele>1362.8061523438</ele>
        <time>2011-06-14T11:28:48Z</time>
      </trkpt>
      <trkpt lat="42.84982" lon="0.64282">
        <ele>1360.4028320312</ele>
        <time>2011-06-14T11:28:53Z</time>
      </trkpt>
      <trkpt lat="42.84983" lon="0.64259">
        <ele>1367.6125488281</ele>
        <time>2011-06-14T11:28:58Z</time>
      </trkpt>
      <trkpt lat="42.84986" lon="0.6425">
        <ele>1362.3254394531</ele>
        <time>2011-06-14T11:29:01Z</time>
      </trkpt>
      <trkpt lat="42.84994" lon="0.64232">
        <ele>1357.0383300781</ele>
        <time>2011-06-14T11:29:07Z</time>
      </trkpt>
      <trkpt lat="42.84999" lon="0.64212">
        <ele>1356.5576171875</ele>
        <time>2011-06-14T11:29:13Z</time>
      </trkpt>
      <trkpt lat="42.84999" lon="0.64209">
        <ele>1356.0769042969</ele>
        <time>2011-06-14T11:29:14Z</time>
      </trkpt>
      <trkpt lat="42.85006" lon="0.64189">
        <ele>1349.8283691406</ele>
        <time>2011-06-14T11:29:20Z</time>
      </trkpt>
      <trkpt lat="42.85008" lon="0.64168">
        <ele>1353.1928710938</ele>
        <time>2011-06-14T11:29:25Z</time>
      </trkpt>
      <trkpt lat="42.85008" lon="0.64151">
        <ele>1357.0383300781</ele>
        <time>2011-06-14T11:29:29Z</time>
      </trkpt>
      <trkpt lat="42.85011" lon="0.64137">
        <ele>1356.0769042969</ele>
        <time>2011-06-14T11:29:35Z</time>
      </trkpt>
      <trkpt lat="42.85013" lon="0.64123">
        <ele>1353.1928710938</ele>
        <time>2011-06-14T11:29:44Z</time>
      </trkpt>
      <trkpt lat="42.85017" lon="0.6411">
        <ele>1347.9057617188</ele>
        <time>2011-06-14T11:29:52Z</time>
      </trkpt>
      <trkpt lat="42.85019" lon="0.641">
        <ele>1345.0217285156</ele>
        <time>2011-06-14T11:29:58Z</time>
      </trkpt>
      <trkpt lat="42.85019" lon="0.64093">
        <ele>1345.9831542969</ele>
        <time>2011-06-14T11:30:02Z</time>
      </trkpt>
      <trkpt lat="42.85016" lon="0.64084">
        <ele>1351.7509765625</ele>
        <time>2011-06-14T11:30:05Z</time>
      </trkpt>
      <trkpt lat="42.85014" lon="0.6407">
        <ele>1358.9609375</ele>
        <time>2011-06-14T11:30:10Z</time>
      </trkpt>
      <trkpt lat="42.85014" lon="0.64064">
        <ele>1357.9997558594</ele>
        <time>2011-06-14T11:30:13Z</time>
      </trkpt>
      <trkpt lat="42.85015" lon="0.64047">
        <ele>1354.154296875</ele>
        <time>2011-06-14T11:30:22Z</time>
      </trkpt>
      <trkpt lat="42.85016" lon="0.64035">
        <ele>1353.1928710938</ele>
        <time>2011-06-14T11:30:28Z</time>
      </trkpt>
      <trkpt lat="42.85015" lon="0.64027">
        <ele>1354.634765625</ele>
        <time>2011-06-14T11:30:32Z</time>
      </trkpt>
      <trkpt lat="42.85015" lon="0.64018">
        <ele>1353.6735839844</ele>
        <time>2011-06-14T11:30:36Z</time>
      </trkpt>
      <trkpt lat="42.85017" lon="0.64011">
        <ele>1352.7121582031</ele>
        <time>2011-06-14T11:30:40Z</time>
      </trkpt>
      <trkpt lat="42.85017" lon="0.64009">
        <ele>1352.7121582031</ele>
        <time>2011-06-14T11:30:41Z</time>
      </trkpt>
      <trkpt lat="42.85017" lon="0.64001">
        <ele>1353.1928710938</ele>
        <time>2011-06-14T11:30:45Z</time>
      </trkpt>
      <trkpt lat="42.85016" lon="0.63993">
        <ele>1350.7895507812</ele>
        <time>2011-06-14T11:30:49Z</time>
      </trkpt>
      <trkpt lat="42.85016" lon="0.63977">
        <ele>1351.7509765625</ele>
        <time>2011-06-14T11:30:56Z</time>
      </trkpt>
      <trkpt lat="42.85017" lon="0.63968">
        <ele>1348.8669433594</ele>
        <time>2011-06-14T11:31:00Z</time>
      </trkpt>
      <trkpt lat="42.8502" lon="0.63961">
        <ele>1349.8283691406</ele>
        <time>2011-06-14T11:31:04Z</time>
      </trkpt>
      <trkpt lat="42.85023" lon="0.63958">
        <ele>1347.4250488281</ele>
        <time>2011-06-14T11:31:06Z</time>
      </trkpt>
      <trkpt lat="42.85029" lon="0.6395">
        <ele>1341.1765136719</ele>
        <time>2011-06-14T11:31:11Z</time>
      </trkpt>
      <trkpt lat="42.85032" lon="0.63949">
        <ele>1340.2153320312</ele>
        <time>2011-06-14T11:31:13Z</time>
      </trkpt>
      <trkpt lat="42.85035" lon="0.63943">
        <ele>1341.6572265625</ele>
        <time>2011-06-14T11:31:17Z</time>
      </trkpt>
      <trkpt lat="42.8504" lon="0.63935">
        <ele>1344.541015625</ele>
        <time>2011-06-14T11:31:22Z</time>
      </trkpt>
      <trkpt lat="42.85052" lon="0.63928">
        <ele>1344.541015625</ele>
        <time>2011-06-14T11:31:31Z</time>
      </trkpt>
      <trkpt lat="42.85057" lon="0.63926">
        <ele>1344.060546875</ele>
        <time>2011-06-14T11:31:33Z</time>
      </trkpt>
      <trkpt lat="42.85069" lon="0.6392">
        <ele>1340.2153320312</ele>
        <time>2011-06-14T11:31:39Z</time>
      </trkpt>
      <trkpt lat="42.85078" lon="0.63912">
        <ele>1341.6572265625</ele>
        <time>2011-06-14T11:31:44Z</time>
      </trkpt>
      <trkpt lat="42.85087" lon="0.63905">
        <ele>1341.1765136719</ele>
        <time>2011-06-14T11:31:48Z</time>
      </trkpt>
      <trkpt lat="42.85101" lon="0.63898">
        <ele>1338.2924804688</ele>
        <time>2011-06-14T11:31:53Z</time>
      </trkpt>
      <trkpt lat="42.85111" lon="0.63892">
        <ele>1333.9665527344</ele>
        <time>2011-06-14T11:31:57Z</time>
      </trkpt>
      <trkpt lat="42.8512" lon="0.63884">
        <ele>1330.6020507812</ele>
        <time>2011-06-14T11:32:01Z</time>
      </trkpt>
      <trkpt lat="42.85131" lon="0.63874">
        <ele>1326.7568359375</ele>
        <time>2011-06-14T11:32:06Z</time>
      </trkpt>
      <trkpt lat="42.85138" lon="0.63866">
        <ele>1325.3146972656</ele>
        <time>2011-06-14T11:32:09Z</time>
      </trkpt>
      <trkpt lat="42.85141" lon="0.63864">
        <ele>1325.3146972656</ele>
        <time>2011-06-14T11:32:10Z</time>
      </trkpt>
      <trkpt lat="42.85145" lon="0.63841">
        <ele>1330.6020507812</ele>
        <time>2011-06-14T11:32:16Z</time>
      </trkpt>
      <trkpt lat="42.85148" lon="0.6382">
        <ele>1336.3698730469</ele>
        <time>2011-06-14T11:32:21Z</time>
      </trkpt>
      <trkpt lat="42.85158" lon="0.63801">
        <ele>1336.3698730469</ele>
        <time>2011-06-14T11:32:27Z</time>
      </trkpt>
      <trkpt lat="42.8516" lon="0.63798">
        <ele>1335.4084472656</ele>
        <time>2011-06-14T11:32:28Z</time>
      </trkpt>
      <trkpt lat="42.85172" lon="0.63782">
        <ele>1333.4858398438</ele>
        <time>2011-06-14T11:32:34Z</time>
      </trkpt>
      <trkpt lat="42.85183" lon="0.63773">
        <ele>1331.5632324219</ele>
        <time>2011-06-14T11:32:39Z</time>
      </trkpt>
      <trkpt lat="42.85192" lon="0.63762">
        <ele>1330.1213378906</ele>
        <time>2011-06-14T11:32:44Z</time>
      </trkpt>
      <trkpt lat="42.85197" lon="0.63753">
        <ele>1331.0827636719</ele>
        <time>2011-06-14T11:32:47Z</time>
      </trkpt>
      <trkpt lat="42.85202" lon="0.63735">
        <ele>1337.8117675781</ele>
        <time>2011-06-14T11:32:52Z</time>
      </trkpt>
      <trkpt lat="42.85204" lon="0.63729">
        <ele>1339.734375</ele>
        <time>2011-06-14T11:32:54Z</time>
      </trkpt>
      <trkpt lat="42.85208" lon="0.63721">
        <ele>1341.1765136719</ele>
        <time>2011-06-14T11:32:58Z</time>
      </trkpt>
      <trkpt lat="42.85209" lon="0.63717">
        <ele>1343.0991210938</ele>
        <time>2011-06-14T11:33:00Z</time>
      </trkpt>
      <trkpt lat="42.85214" lon="0.63713">
        <ele>1340.2153320312</ele>
        <time>2011-06-14T11:33:04Z</time>
      </trkpt>
      <trkpt lat="42.85225" lon="0.6371">
        <ele>1334.9279785156</ele>
        <time>2011-06-14T11:33:10Z</time>
      </trkpt>
      <trkpt lat="42.8523" lon="0.63706">
        <ele>1331.0827636719</ele>
        <time>2011-06-14T11:33:14Z</time>
      </trkpt>
      <trkpt lat="42.85239" lon="0.63704">
        <ele>1325.7954101562</ele>
        <time>2011-06-14T11:33:20Z</time>
      </trkpt>
      <trkpt lat="42.85249" lon="0.63701">
        <ele>1322.9113769531</ele>
        <time>2011-06-14T11:33:26Z</time>
      </trkpt>
      <trkpt lat="42.85255" lon="0.63701">
        <ele>1322.4306640625</ele>
        <time>2011-06-14T11:33:30Z</time>
      </trkpt>
      <trkpt lat="42.85263" lon="0.63703">
        <ele>1320.9887695312</ele>
        <time>2011-06-14T11:33:35Z</time>
      </trkpt>
      <trkpt lat="42.85275" lon="0.63707">
        <ele>1320.9887695312</ele>
        <time>2011-06-14T11:33:42Z</time>
      </trkpt>
      <trkpt lat="42.85283" lon="0.6371">
        <ele>1321.4692382812</ele>
        <time>2011-06-14T11:33:47Z</time>
      </trkpt>
      <trkpt lat="42.85294" lon="0.63713">
        <ele>1321.9499511719</ele>
        <time>2011-06-14T11:33:53Z</time>
      </trkpt>
      <trkpt lat="42.8531" lon="0.63714">
        <ele>1320.9887695312</ele>
        <time>2011-06-14T11:33:58Z</time>
      </trkpt>
      <trkpt lat="42.85322" lon="0.63709">
        <ele>1319.0661621094</ele>
        <time>2011-06-14T11:34:03Z</time>
      </trkpt>
      <trkpt lat="42.85333" lon="0.63699">
        <ele>1317.6240234375</ele>
        <time>2011-06-14T11:34:08Z</time>
      </trkpt>
      <trkpt lat="42.85334" lon="0.63697">
        <ele>1317.6240234375</ele>
        <time>2011-06-14T11:34:09Z</time>
      </trkpt>
      <trkpt lat="42.85343" lon="0.63681">
        <ele>1317.6240234375</ele>
        <time>2011-06-14T11:34:14Z</time>
      </trkpt>
      <trkpt lat="42.85347" lon="0.63663">
        <ele>1319.0661621094</ele>
        <time>2011-06-14T11:34:18Z</time>
      </trkpt>
      <trkpt lat="42.85352" lon="0.63645">
        <ele>1320.02734375</ele>
        <time>2011-06-14T11:34:23Z</time>
      </trkpt>
      <trkpt lat="42.85356" lon="0.63628">
        <ele>1320.02734375</ele>
        <time>2011-06-14T11:34:28Z</time>
      </trkpt>
      <trkpt lat="42.85358" lon="0.6361">
        <ele>1321.4692382812</ele>
        <time>2011-06-14T11:34:33Z</time>
      </trkpt>
      <trkpt lat="42.85359" lon="0.63593">
        <ele>1322.4306640625</ele>
        <time>2011-06-14T11:34:38Z</time>
      </trkpt>
      <trkpt lat="42.85363" lon="0.63576">
        <ele>1322.9113769531</ele>
        <time>2011-06-14T11:34:42Z</time>
      </trkpt>
      <trkpt lat="42.85366" lon="0.63565">
        <ele>1322.9113769531</ele>
        <time>2011-06-14T11:34:45Z</time>
      </trkpt>
      <trkpt lat="42.85371" lon="0.63554">
        <ele>1320.9887695312</ele>
        <time>2011-06-14T11:34:50Z</time>
      </trkpt>
      <trkpt lat="42.85376" lon="0.63548">
        <ele>1318.1047363281</ele>
        <time>2011-06-14T11:34:55Z</time>
      </trkpt>
      <trkpt lat="42.8538" lon="0.63541">
        <ele>1315.7016601562</ele>
        <time>2011-06-14T11:34:59Z</time>
      </trkpt>
      <trkpt lat="42.85387" lon="0.63534">
        <ele>1312.3369140625</ele>
        <time>2011-06-14T11:35:05Z</time>
      </trkpt>
      <trkpt lat="42.85395" lon="0.63526">
        <ele>1311.8564453125</ele>
        <time>2011-06-14T11:35:12Z</time>
      </trkpt>
      <trkpt lat="42.85406" lon="0.63517">
        <ele>1315.2209472656</ele>
        <time>2011-06-14T11:35:22Z</time>
      </trkpt>
      <trkpt lat="42.85407" lon="0.63516">
        <ele>1315.7016601562</ele>
        <time>2011-06-14T11:35:23Z</time>
      </trkpt>
      <trkpt lat="42.85417" lon="0.63513">
        <ele>1316.6628417969</ele>
        <time>2011-06-14T11:35:30Z</time>
      </trkpt>
      <trkpt lat="42.85427" lon="0.63509">
        <ele>1318.1047363281</ele>
        <time>2011-06-14T11:35:37Z</time>
      </trkpt>
      <trkpt lat="42.85436" lon="0.63507">
        <ele>1318.5854492188</ele>
        <time>2011-06-14T11:35:44Z</time>
      </trkpt>
      <trkpt lat="42.8544" lon="0.63506">
        <ele>1318.5854492188</ele>
        <time>2011-06-14T11:35:47Z</time>
      </trkpt>
      <trkpt lat="42.85454" lon="0.63503">
        <ele>1318.5854492188</ele>
        <time>2011-06-14T11:35:57Z</time>
      </trkpt>
      <trkpt lat="42.85466" lon="0.63499">
        <ele>1318.5854492188</ele>
        <time>2011-06-14T11:36:06Z</time>
      </trkpt>
      <trkpt lat="42.85466" lon="0.635">
        <ele>1318.5854492188</ele>
        <time>2011-06-14T11:36:08Z</time>
      </trkpt>
      <trkpt lat="42.85458" lon="0.63502">
        <ele>1317.6240234375</ele>
        <time>2011-06-14T11:36:14Z</time>
      </trkpt>
      <trkpt lat="42.85453" lon="0.63503">
        <ele>1317.6240234375</ele>
        <time>2011-06-14T11:36:17Z</time>
      </trkpt>
      <trkpt lat="42.85451" lon="0.63497">
        <ele>1315.7016601562</ele>
        <time>2011-06-14T11:36:22Z</time>
      </trkpt>
      <trkpt lat="42.8546" lon="0.63483">
        <ele>1309.93359375</ele>
        <time>2011-06-14T11:36:28Z</time>
      </trkpt>
      <trkpt lat="42.85469" lon="0.63471">
        <ele>1305.6076660156</ele>
        <time>2011-06-14T11:36:33Z</time>
      </trkpt>
      <trkpt lat="42.85484" lon="0.63452">
        <ele>1300.3205566406</ele>
        <time>2011-06-14T11:36:40Z</time>
      </trkpt>
      <trkpt lat="42.85496" lon="0.6344">
        <ele>1296.4753417969</ele>
        <time>2011-06-14T11:36:45Z</time>
      </trkpt>
      <trkpt lat="42.85507" lon="0.63425">
        <ele>1292.1494140625</ele>
        <time>2011-06-14T11:36:50Z</time>
      </trkpt>
      <trkpt lat="42.85518" lon="0.63411">
        <ele>1289.2651367188</ele>
        <time>2011-06-14T11:36:55Z</time>
      </trkpt>
      <trkpt lat="42.8553" lon="0.63397">
        <ele>1286.8618164062</ele>
        <time>2011-06-14T11:37:01Z</time>
      </trkpt>
      <trkpt lat="42.8554" lon="0.63383">
        <ele>1284.4587402344</ele>
        <time>2011-06-14T11:37:06Z</time>
      </trkpt>
      <trkpt lat="42.85549" lon="0.63365">
        <ele>1282.5361328125</ele>
        <time>2011-06-14T11:37:12Z</time>
      </trkpt>
      <trkpt lat="42.85556" lon="0.6335">
        <ele>1281.5747070312</ele>
        <time>2011-06-14T11:37:17Z</time>
      </trkpt>
      <trkpt lat="42.85563" lon="0.63336">
        <ele>1279.6520996094</ele>
        <time>2011-06-14T11:37:22Z</time>
      </trkpt>
      <trkpt lat="42.85572" lon="0.6332">
        <ele>1277.7294921875</ele>
        <time>2011-06-14T11:37:28Z</time>
      </trkpt>
      <trkpt lat="42.85579" lon="0.6331">
        <ele>1276.7683105469</ele>
        <time>2011-06-14T11:37:32Z</time>
      </trkpt>
      <trkpt lat="42.8558" lon="0.63307">
        <ele>1276.2875976562</ele>
        <time>2011-06-14T11:37:34Z</time>
      </trkpt>
      <trkpt lat="42.85586" lon="0.633">
        <ele>1274.8454589844</ele>
        <time>2011-06-14T11:37:40Z</time>
      </trkpt>
      <trkpt lat="42.85592" lon="0.63294">
        <ele>1274.3647460938</ele>
        <time>2011-06-14T11:37:44Z</time>
      </trkpt>
      <trkpt lat="42.85594" lon="0.63284">
        <ele>1270.0388183594</ele>
        <time>2011-06-14T11:37:49Z</time>
      </trkpt>
      <trkpt lat="42.85597" lon="0.63278">
        <ele>1267.6354980469</ele>
        <time>2011-06-14T11:37:53Z</time>
      </trkpt>
      <trkpt lat="42.85598" lon="0.63276">
        <ele>1266.6743164062</ele>
        <time>2011-06-14T11:37:54Z</time>
      </trkpt>
      <trkpt lat="42.856" lon="0.63273">
        <ele>1265.7131347656</ele>
        <time>2011-06-14T11:37:56Z</time>
      </trkpt>
      <trkpt lat="42.85607" lon="0.63264">
        <ele>1264.7517089844</ele>
        <time>2011-06-14T11:38:02Z</time>
      </trkpt>
      <trkpt lat="42.85612" lon="0.63258">
        <ele>1263.7902832031</ele>
        <time>2011-06-14T11:38:06Z</time>
      </trkpt>
      <trkpt lat="42.85618" lon="0.6325">
        <ele>1261.8679199219</ele>
        <time>2011-06-14T11:38:11Z</time>
      </trkpt>
      <trkpt lat="42.85623" lon="0.63242">
        <ele>1259.9448242188</ele>
        <time>2011-06-14T11:38:17Z</time>
      </trkpt>
      <trkpt lat="42.8563" lon="0.63234">
        <ele>1258.0224609375</ele>
        <time>2011-06-14T11:38:23Z</time>
      </trkpt>
      <trkpt lat="42.85634" lon="0.6323">
        <ele>1255.619140625</ele>
        <time>2011-06-14T11:38:27Z</time>
      </trkpt>
      <trkpt lat="42.85639" lon="0.63223">
        <ele>1254.1772460938</ele>
        <time>2011-06-14T11:38:32Z</time>
      </trkpt>
      <trkpt lat="42.85653" lon="0.63207">
        <ele>1251.2932128906</ele>
        <time>2011-06-14T11:38:40Z</time>
      </trkpt>
      <trkpt lat="42.85666" lon="0.63197">
        <ele>1249.8513183594</ele>
        <time>2011-06-14T11:38:46Z</time>
      </trkpt>
      <trkpt lat="42.8568" lon="0.63195">
        <ele>1248.8898925781</ele>
        <time>2011-06-14T11:38:52Z</time>
      </trkpt>
      <trkpt lat="42.85693" lon="0.6319">
        <ele>1247.9287109375</ele>
        <time>2011-06-14T11:38:59Z</time>
      </trkpt>
      <trkpt lat="42.85705" lon="0.63178">
        <ele>1246.0061035156</ele>
        <time>2011-06-14T11:39:05Z</time>
      </trkpt>
      <trkpt lat="42.85712" lon="0.63166">
        <ele>1244.5639648438</ele>
        <time>2011-06-14T11:39:09Z</time>
      </trkpt>
      <trkpt lat="42.85715" lon="0.63156">
        <ele>1243.6025390625</ele>
        <time>2011-06-14T11:39:13Z</time>
      </trkpt>
      <trkpt lat="42.85716" lon="0.63152">
        <ele>1243.1218261719</ele>
        <time>2011-06-14T11:39:15Z</time>
      </trkpt>
      <trkpt lat="42.85715" lon="0.63142">
        <ele>1241.6799316406</ele>
        <time>2011-06-14T11:39:20Z</time>
      </trkpt>
      <trkpt lat="42.85713" lon="0.63128">
        <ele>1239.7573242188</ele>
        <time>2011-06-14T11:39:26Z</time>
      </trkpt>
      <trkpt lat="42.85712" lon="0.63112">
        <ele>1236.3928222656</ele>
        <time>2011-06-14T11:39:33Z</time>
      </trkpt>
      <trkpt lat="42.85713" lon="0.63099">
        <ele>1234.4702148438</ele>
        <time>2011-06-14T11:39:37Z</time>
      </trkpt>
      <trkpt lat="42.85714" lon="0.63096">
        <ele>1233.9895019531</ele>
        <time>2011-06-14T11:39:38Z</time>
      </trkpt>
      <trkpt lat="42.85718" lon="0.6309">
        <ele>1231.5861816406</ele>
        <time>2011-06-14T11:39:43Z</time>
      </trkpt>
      <trkpt lat="42.85727" lon="0.63087">
        <ele>1228.2216796875</ele>
        <time>2011-06-14T11:39:50Z</time>
      </trkpt>
      <trkpt lat="42.8573" lon="0.63073">
        <ele>1226.7795410156</ele>
        <time>2011-06-14T11:39:57Z</time>
      </trkpt>
      <trkpt lat="42.8573" lon="0.63069">
        <ele>1226.298828125</ele>
        <time>2011-06-14T11:39:59Z</time>
      </trkpt>
      <trkpt lat="42.85732" lon="0.6305">
        <ele>1225.8181152344</ele>
        <time>2011-06-14T11:40:06Z</time>
      </trkpt>
      <trkpt lat="42.85733" lon="0.63033">
        <ele>1223.8955078125</ele>
        <time>2011-06-14T11:40:12Z</time>
      </trkpt>
      <trkpt lat="42.85735" lon="0.63022">
        <ele>1221.9729003906</ele>
        <time>2011-06-14T11:40:16Z</time>
      </trkpt>
      <trkpt lat="42.85735" lon="0.63011">
        <ele>1219.5698242188</ele>
        <time>2011-06-14T11:40:21Z</time>
      </trkpt>
      <trkpt lat="42.85736" lon="0.63004">
        <ele>1217.6469726562</ele>
        <time>2011-06-14T11:40:26Z</time>
      </trkpt>
      <trkpt lat="42.85736" lon="0.63003">
        <ele>1216.6857910156</ele>
        <time>2011-06-14T11:40:33Z</time>
      </trkpt>
      <trkpt lat="42.85737" lon="0.63003">
        <ele>1213.8017578125</ele>
        <time>2011-06-14T11:40:43Z</time>
      </trkpt>
      <trkpt lat="42.85736" lon="0.63001">
        <ele>1210.9177246094</ele>
        <time>2011-06-14T11:40:55Z</time>
      </trkpt>
      <trkpt lat="42.85736" lon="0.62997">
        <ele>1210.9177246094</ele>
        <time>2011-06-14T11:40:58Z</time>
      </trkpt>
      <trkpt lat="42.85738" lon="0.62982">
        <ele>1209.4758300781</ele>
        <time>2011-06-14T11:41:04Z</time>
      </trkpt>
      <trkpt lat="42.85738" lon="0.62956">
        <ele>1210.4370117188</ele>
        <time>2011-06-14T11:41:11Z</time>
      </trkpt>
      <trkpt lat="42.85739" lon="0.62939">
        <ele>1209.4758300781</ele>
        <time>2011-06-14T11:41:16Z</time>
      </trkpt>
      <trkpt lat="42.8574" lon="0.62923">
        <ele>1206.1110839844</ele>
        <time>2011-06-14T11:41:21Z</time>
      </trkpt>
      <trkpt lat="42.8574" lon="0.62903">
        <ele>1201.3046875</ele>
        <time>2011-06-14T11:41:27Z</time>
      </trkpt>
      <trkpt lat="42.85741" lon="0.62885">
        <ele>1196.9787597656</ele>
        <time>2011-06-14T11:41:33Z</time>
      </trkpt>
      <trkpt lat="42.85741" lon="0.62882">
        <ele>1196.017578125</ele>
        <time>2011-06-14T11:41:34Z</time>
      </trkpt>
      <trkpt lat="42.85741" lon="0.62868">
        <ele>1193.1333007812</ele>
        <time>2011-06-14T11:41:39Z</time>
      </trkpt>
      <trkpt lat="42.85745" lon="0.62867">
        <ele>1191.2106933594</ele>
        <time>2011-06-14T11:41:43Z</time>
      </trkpt>
      <trkpt lat="42.85752" lon="0.62869">
        <ele>1190.2495117188</ele>
        <time>2011-06-14T11:41:50Z</time>
      </trkpt>
      <trkpt lat="42.85758" lon="0.62871">
        <ele>1193.1333007812</ele>
        <time>2011-06-14T11:44:54Z</time>
      </trkpt>
      <trkpt lat="42.85758" lon="0.62871">
        <ele>1193.1333007812</ele>
        <time>2011-06-14T11:44:55Z</time>
      </trkpt>
      <trkpt lat="42.85765" lon="0.62876">
        <ele>1189.7687988281</ele>
        <time>2011-06-14T11:44:59Z</time>
      </trkpt>
      <trkpt lat="42.8577" lon="0.62872">
        <ele>1187.3654785156</ele>
        <time>2011-06-14T11:45:02Z</time>
      </trkpt>
      <trkpt lat="42.85768" lon="0.62857">
        <ele>1185.4428710938</ele>
        <time>2011-06-14T11:45:06Z</time>
      </trkpt>
      <trkpt lat="42.85762" lon="0.62831">
        <ele>1183.0395507812</ele>
        <time>2011-06-14T11:45:12Z</time>
      </trkpt>
      <trkpt lat="42.8576" lon="0.62815">
        <ele>1181.1171875</ele>
        <time>2011-06-14T11:45:16Z</time>
      </trkpt>
      <trkpt lat="42.85754" lon="0.62797">
        <ele>1179.1940917969</ele>
        <time>2011-06-14T11:45:21Z</time>
      </trkpt>
      <trkpt lat="42.85753" lon="0.62787">
        <ele>1177.7521972656</ele>
        <time>2011-06-14T11:45:24Z</time>
      </trkpt>
      <trkpt lat="42.85761" lon="0.62785">
        <ele>1174.3876953125</ele>
        <time>2011-06-14T11:45:27Z</time>
      </trkpt>
      <trkpt lat="42.85772" lon="0.62792">
        <ele>1170.5424804688</ele>
        <time>2011-06-14T11:45:32Z</time>
      </trkpt>
      <trkpt lat="42.85778" lon="0.62791">
        <ele>1169.1005859375</ele>
        <time>2011-06-14T11:45:34Z</time>
      </trkpt>
      <trkpt lat="42.85783" lon="0.6279">
        <ele>1168.1391601562</ele>
        <time>2011-06-14T11:45:36Z</time>
      </trkpt>
      <trkpt lat="42.85793" lon="0.62777">
        <ele>1165.7360839844</ele>
        <time>2011-06-14T11:45:41Z</time>
      </trkpt>
      <trkpt lat="42.85793" lon="0.62774">
        <ele>1166.2165527344</ele>
        <time>2011-06-14T11:45:42Z</time>
      </trkpt>
      <trkpt lat="42.85791" lon="0.62749">
        <ele>1160.4484863281</ele>
        <time>2011-06-14T11:45:49Z</time>
      </trkpt>
      <trkpt lat="42.85785" lon="0.62733">
        <ele>1156.1225585938</ele>
        <time>2011-06-14T11:45:54Z</time>
      </trkpt>
      <trkpt lat="42.85783" lon="0.62727">
        <ele>1154.6806640625</ele>
        <time>2011-06-14T11:45:56Z</time>
      </trkpt>
      <trkpt lat="42.85785" lon="0.62719">
        <ele>1151.3161621094</ele>
        <time>2011-06-14T11:46:01Z</time>
      </trkpt>
      <trkpt lat="42.85792" lon="0.62715">
        <ele>1148.9128417969</ele>
        <time>2011-06-14T11:46:05Z</time>
      </trkpt>
      <trkpt lat="42.85798" lon="0.62714">
        <ele>1146.9899902344</ele>
        <time>2011-06-14T11:46:08Z</time>
      </trkpt>
      <trkpt lat="42.85808" lon="0.62716">
        <ele>1144.1062011719</ele>
        <time>2011-06-14T11:46:12Z</time>
      </trkpt>
      <trkpt lat="42.85822" lon="0.62722">
        <ele>1141.7028808594</ele>
        <time>2011-06-14T11:46:17Z</time>
      </trkpt>
      <trkpt lat="42.85833" lon="0.6272">
        <ele>1138.3383789062</ele>
        <time>2011-06-14T11:46:21Z</time>
      </trkpt>
      <trkpt lat="42.85842" lon="0.62713">
        <ele>1136.4157714844</ele>
        <time>2011-06-14T11:46:25Z</time>
      </trkpt>
      <trkpt lat="42.85851" lon="0.62707">
        <ele>1134.4931640625</ele>
        <time>2011-06-14T11:46:29Z</time>
      </trkpt>
      <trkpt lat="42.85857" lon="0.62697">
        <ele>1136.8962402344</ele>
        <time>2011-06-14T11:46:32Z</time>
      </trkpt>
      <trkpt lat="42.85857" lon="0.62686">
        <ele>1137.8576660156</ele>
        <time>2011-06-14T11:46:37Z</time>
      </trkpt>
      <trkpt lat="42.85859" lon="0.62676">
        <ele>1137.8576660156</ele>
        <time>2011-06-14T11:46:42Z</time>
      </trkpt>
      <trkpt lat="42.8586" lon="0.62674">
        <ele>1136.4157714844</ele>
        <time>2011-06-14T11:46:44Z</time>
      </trkpt>
      <trkpt lat="42.85865" lon="0.62665">
        <ele>1134.4931640625</ele>
        <time>2011-06-14T11:46:49Z</time>
      </trkpt>
      <trkpt lat="42.85865" lon="0.62663">
        <ele>1134.0124511719</ele>
        <time>2011-06-14T11:46:50Z</time>
      </trkpt>
      <trkpt lat="42.85868" lon="0.62652">
        <ele>1130.6477050781</ele>
        <time>2011-06-14T11:46:56Z</time>
      </trkpt>
      <trkpt lat="42.8587" lon="0.62646">
        <ele>1129.2055664062</ele>
        <time>2011-06-14T11:46:59Z</time>
      </trkpt>
      <trkpt lat="42.8587" lon="0.62636">
        <ele>1128.7250976562</ele>
        <time>2011-06-14T11:47:04Z</time>
      </trkpt>
      <trkpt lat="42.85864" lon="0.62632">
        <ele>1127.763671875</ele>
        <time>2011-06-14T11:47:09Z</time>
      </trkpt>
      <trkpt lat="42.85857" lon="0.62631">
        <ele>1126.8024902344</ele>
        <time>2011-06-14T11:47:14Z</time>
      </trkpt>
      <trkpt lat="42.85852" lon="0.62632">
        <ele>1124.8798828125</ele>
        <time>2011-06-14T11:47:17Z</time>
      </trkpt>
      <trkpt lat="42.85839" lon="0.62634">
        <ele>1121.0346679688</ele>
        <time>2011-06-14T11:47:24Z</time>
      </trkpt>
      <trkpt lat="42.85835" lon="0.62633">
        <ele>1120.0732421875</ele>
        <time>2011-06-14T11:47:26Z</time>
      </trkpt>
      <trkpt lat="42.85832" lon="0.62619">
        <ele>1116.2280273438</ele>
        <time>2011-06-14T11:47:31Z</time>
      </trkpt>
      <trkpt lat="42.85833" lon="0.62617">
        <ele>1115.7473144531</ele>
        <time>2011-06-14T11:47:32Z</time>
      </trkpt>
      <trkpt lat="42.85841" lon="0.62595">
        <ele>1112.3825683594</ele>
        <time>2011-06-14T11:47:39Z</time>
      </trkpt>
      <trkpt lat="42.85845" lon="0.62583">
        <ele>1109.9792480469</ele>
        <time>2011-06-14T11:47:44Z</time>
      </trkpt>
      <trkpt lat="42.85847" lon="0.62574">
        <ele>1108.0568847656</ele>
        <time>2011-06-14T11:47:49Z</time>
      </trkpt>
      <trkpt lat="42.85845" lon="0.62569">
        <ele>1106.6147460938</ele>
        <time>2011-06-14T11:47:52Z</time>
      </trkpt>
      <trkpt lat="42.85835" lon="0.62564">
        <ele>1102.76953125</ele>
        <time>2011-06-14T11:47:59Z</time>
      </trkpt>
      <trkpt lat="42.85831" lon="0.62561">
        <ele>1101.8083496094</ele>
        <time>2011-06-14T11:48:01Z</time>
      </trkpt>
      <trkpt lat="42.8583" lon="0.62549">
        <ele>1099.4047851562</ele>
        <time>2011-06-14T11:48:06Z</time>
      </trkpt>
      <trkpt lat="42.85836" lon="0.62544">
        <ele>1098.9240722656</ele>
        <time>2011-06-14T11:48:10Z</time>
      </trkpt>
      <trkpt lat="42.85838" lon="0.62541">
        <ele>1098.9240722656</ele>
        <time>2011-06-14T11:48:12Z</time>
      </trkpt>
      <trkpt lat="42.85841" lon="0.62535">
        <ele>1098.9240722656</ele>
        <time>2011-06-14T11:48:14Z</time>
      </trkpt>
      <trkpt lat="42.85837" lon="0.62527">
        <ele>1097.4821777344</ele>
        <time>2011-06-14T11:48:20Z</time>
      </trkpt>
      <trkpt lat="42.85831" lon="0.62529">
        <ele>1097.962890625</ele>
        <time>2011-06-14T11:48:24Z</time>
      </trkpt>
      <trkpt lat="42.85824" lon="0.62526">
        <ele>1096.0402832031</ele>
        <time>2011-06-14T11:48:30Z</time>
      </trkpt>
      <trkpt lat="42.85826" lon="0.62518">
        <ele>1094.5981445312</ele>
        <time>2011-06-14T11:48:35Z</time>
      </trkpt>
      <trkpt lat="42.85826" lon="0.62514">
        <ele>1094.1176757812</ele>
        <time>2011-06-14T11:48:37Z</time>
      </trkpt>
      <trkpt lat="42.85826" lon="0.62501">
        <ele>1091.7143554688</ele>
        <time>2011-06-14T11:48:43Z</time>
      </trkpt>
      <trkpt lat="42.85829" lon="0.62488">
        <ele>1090.2724609375</ele>
        <time>2011-06-14T11:48:50Z</time>
      </trkpt>
      <trkpt lat="42.85828" lon="0.62475">
        <ele>1088.3498535156</ele>
        <time>2011-06-14T11:48:57Z</time>
      </trkpt>
      <trkpt lat="42.85828" lon="0.62468">
        <ele>1087.3884277344</ele>
        <time>2011-06-14T11:49:01Z</time>
      </trkpt>
      <trkpt lat="42.85832" lon="0.62462">
        <ele>1085.9465332031</ele>
        <time>2011-06-14T11:49:06Z</time>
      </trkpt>
      <trkpt lat="42.85838" lon="0.62456">
        <ele>1084.5046386719</ele>
        <time>2011-06-14T11:49:11Z</time>
      </trkpt>
      <trkpt lat="42.85841" lon="0.6245">
        <ele>1083.54296875</ele>
        <time>2011-06-14T11:49:14Z</time>
      </trkpt>
      <trkpt lat="42.85834" lon="0.62444">
        <ele>1082.1010742188</ele>
        <time>2011-06-14T11:49:21Z</time>
      </trkpt>
      <trkpt lat="42.85826" lon="0.62441">
        <ele>1081.6203613281</ele>
        <time>2011-06-14T11:49:26Z</time>
      </trkpt>
      <trkpt lat="42.85819" lon="0.62441">
        <ele>1079.6977539062</ele>
        <time>2011-06-14T11:49:32Z</time>
      </trkpt>
      <trkpt lat="42.85816" lon="0.62442">
        <ele>1079.2170410156</ele>
        <time>2011-06-14T11:49:34Z</time>
      </trkpt>
      <trkpt lat="42.85806" lon="0.62443">
        <ele>1076.8139648438</ele>
        <time>2011-06-14T11:49:40Z</time>
      </trkpt>
      <trkpt lat="42.85802" lon="0.62435">
        <ele>1075.3718261719</ele>
        <time>2011-06-14T11:49:45Z</time>
      </trkpt>
      <trkpt lat="42.85802" lon="0.62423">
        <ele>1072.4880371094</ele>
        <time>2011-06-14T11:49:50Z</time>
      </trkpt>
      <trkpt lat="42.85807" lon="0.62411">
        <ele>1069.6042480469</ele>
        <time>2011-06-14T11:49:55Z</time>
      </trkpt>
      <trkpt lat="42.85816" lon="0.62395">
        <ele>1067.2006835938</ele>
        <time>2011-06-14T11:50:01Z</time>
      </trkpt>
      <trkpt lat="42.85825" lon="0.6238">
        <ele>1065.2780761719</ele>
        <time>2011-06-14T11:50:07Z</time>
      </trkpt>
      <trkpt lat="42.85835" lon="0.6237">
        <ele>1063.35546875</ele>
        <time>2011-06-14T11:50:12Z</time>
      </trkpt>
      <trkpt lat="42.85843" lon="0.62357">
        <ele>1061.9135742188</ele>
        <time>2011-06-14T11:50:17Z</time>
      </trkpt>
      <trkpt lat="42.85851" lon="0.62353">
        <ele>1060.4714355469</ele>
        <time>2011-06-14T11:50:21Z</time>
      </trkpt>
      <trkpt lat="42.8586" lon="0.62359">
        <ele>1060.4714355469</ele>
        <time>2011-06-14T11:50:25Z</time>
      </trkpt>
      <trkpt lat="42.85865" lon="0.62372">
        <ele>1061.9135742188</ele>
        <time>2011-06-14T11:50:29Z</time>
      </trkpt>
      <trkpt lat="42.85865" lon="0.62384">
        <ele>1061.9135742188</ele>
        <time>2011-06-14T11:50:35Z</time>
      </trkpt>
      <trkpt lat="42.85866" lon="0.62388">
        <ele>1061.4328613281</ele>
        <time>2011-06-14T11:50:37Z</time>
      </trkpt>
      <trkpt lat="42.8587" lon="0.62405">
        <ele>1058.548828125</ele>
        <time>2011-06-14T11:50:45Z</time>
      </trkpt>
      <trkpt lat="42.85871" lon="0.62407">
        <ele>1059.0295410156</ele>
        <time>2011-06-14T11:50:46Z</time>
      </trkpt>
      <trkpt lat="42.85875" lon="0.6242">
        <ele>1056.6262207031</ele>
        <time>2011-06-14T11:50:53Z</time>
      </trkpt>
      <trkpt lat="42.85875" lon="0.62422">
        <ele>1056.1455078125</ele>
        <time>2011-06-14T11:50:54Z</time>
      </trkpt>
      <trkpt lat="42.85886" lon="0.62429">
        <ele>1051.8195800781</ele>
        <time>2011-06-14T11:51:01Z</time>
      </trkpt>
      <trkpt lat="42.85898" lon="0.62435">
        <ele>1047.9743652344</ele>
        <time>2011-06-14T11:51:07Z</time>
      </trkpt>
      <trkpt lat="42.85905" lon="0.62433">
        <ele>1047.4936523438</ele>
        <time>2011-06-14T11:51:11Z</time>
      </trkpt>
      <trkpt lat="42.85903" lon="0.6242">
        <ele>1045.5710449219</ele>
        <time>2011-06-14T11:51:18Z</time>
      </trkpt>
      <trkpt lat="42.85901" lon="0.62408">
        <ele>1043.6484375</ele>
        <time>2011-06-14T11:51:24Z</time>
      </trkpt>
      <trkpt lat="42.85899" lon="0.62394">
        <ele>1042.2065429688</ele>
        <time>2011-06-14T11:51:31Z</time>
      </trkpt>
      <trkpt lat="42.85898" lon="0.62391">
        <ele>1041.7258300781</ele>
        <time>2011-06-14T11:51:32Z</time>
      </trkpt>
      <trkpt lat="42.85894" lon="0.62378">
        <ele>1041.7258300781</ele>
        <time>2011-06-14T11:51:37Z</time>
      </trkpt>
      <trkpt lat="42.85891" lon="0.62363">
        <ele>1040.7644042969</ele>
        <time>2011-06-14T11:51:41Z</time>
      </trkpt>
      <trkpt lat="42.85891" lon="0.62355">
        <ele>1039.3225097656</ele>
        <time>2011-06-14T11:51:44Z</time>
      </trkpt>
      <trkpt lat="42.8589" lon="0.62343">
        <ele>1038.8420410156</ele>
        <time>2011-06-14T11:51:48Z</time>
      </trkpt>
      <trkpt lat="42.85887" lon="0.62337">
        <ele>1039.3225097656</ele>
        <time>2011-06-14T11:51:51Z</time>
      </trkpt>
      <trkpt lat="42.85886" lon="0.62333">
        <ele>1037.8806152344</ele>
        <time>2011-06-14T11:51:53Z</time>
      </trkpt>
      <trkpt lat="42.85885" lon="0.62324">
        <ele>1036.9191894531</ele>
        <time>2011-06-14T11:51:58Z</time>
      </trkpt>
      <trkpt lat="42.85889" lon="0.62317">
        <ele>1036.9191894531</ele>
        <time>2011-06-14T11:52:02Z</time>
      </trkpt>
      <trkpt lat="42.85891" lon="0.62313">
        <ele>1036.4387207031</ele>
        <time>2011-06-14T11:52:04Z</time>
      </trkpt>
      <trkpt lat="42.85891" lon="0.62308">
        <ele>1034.5158691406</ele>
        <time>2011-06-14T11:52:07Z</time>
      </trkpt>
      <trkpt lat="42.85889" lon="0.62301">
        <ele>1034.03515625</ele>
        <time>2011-06-14T11:52:11Z</time>
      </trkpt>
      <trkpt lat="42.85889" lon="0.62286">
        <ele>1034.03515625</ele>
        <time>2011-06-14T11:52:16Z</time>
      </trkpt>
      <trkpt lat="42.85887" lon="0.62273">
        <ele>1033.0737304688</ele>
        <time>2011-06-14T11:52:20Z</time>
      </trkpt>
      <trkpt lat="42.85888" lon="0.62264">
        <ele>1031.1513671875</ele>
        <time>2011-06-14T11:52:23Z</time>
      </trkpt>
      <trkpt lat="42.85897" lon="0.6227">
        <ele>1026.8254394531</ele>
        <time>2011-06-14T11:52:29Z</time>
      </trkpt>
      <trkpt lat="42.85901" lon="0.62278">
        <ele>1025.3833007812</ele>
        <time>2011-06-14T11:52:32Z</time>
      </trkpt>
      <trkpt lat="42.85905" lon="0.62286">
        <ele>1020.5769042969</ele>
        <time>2011-06-14T11:52:37Z</time>
      </trkpt>
      <trkpt lat="42.85909" lon="0.62282">
        <ele>1019.134765625</ele>
        <time>2011-06-14T11:52:41Z</time>
      </trkpt>
      <trkpt lat="42.85916" lon="0.6227">
        <ele>1018.1733398438</ele>
        <time>2011-06-14T11:52:46Z</time>
      </trkpt>
      <trkpt lat="42.85918" lon="0.62265">
        <ele>1017.6926269531</ele>
        <time>2011-06-14T11:52:48Z</time>
      </trkpt>
      <trkpt lat="42.85921" lon="0.62243">
        <ele>1017.6926269531</ele>
        <time>2011-06-14T11:52:54Z</time>
      </trkpt>
      <trkpt lat="42.85922" lon="0.62239">
        <ele>1017.6926269531</ele>
        <time>2011-06-14T11:52:55Z</time>
      </trkpt>
      <trkpt lat="42.8593" lon="0.62219">
        <ele>1015.2895507812</ele>
        <time>2011-06-14T11:53:01Z</time>
      </trkpt>
      <trkpt lat="42.85936" lon="0.62192">
        <ele>1008.5603027344</ele>
        <time>2011-06-14T11:53:08Z</time>
      </trkpt>
      <trkpt lat="42.85935" lon="0.62174">
        <ele>1005.1958007812</ele>
        <time>2011-06-14T11:53:13Z</time>
      </trkpt>
      <trkpt lat="42.85941" lon="0.62159">
        <ele>1003.2729492188</ele>
        <time>2011-06-14T11:53:18Z</time>
      </trkpt>
      <trkpt lat="42.85944" lon="0.62156">
        <ele>1002.3115234375</ele>
        <time>2011-06-14T11:53:20Z</time>
      </trkpt>
      <trkpt lat="42.85944" lon="0.62143">
        <ele>999.90844726562</ele>
        <time>2011-06-14T11:53:25Z</time>
      </trkpt>
      <trkpt lat="42.85934" lon="0.62137">
        <ele>997.50512695312</ele>
        <time>2011-06-14T11:53:29Z</time>
      </trkpt>
      <trkpt lat="42.85928" lon="0.62138">
        <ele>996.06323242188</ele>
        <time>2011-06-14T11:53:32Z</time>
      </trkpt>
      <trkpt lat="42.85923" lon="0.62141">
        <ele>995.10180664062</ele>
        <time>2011-06-14T11:53:34Z</time>
      </trkpt>
      <trkpt lat="42.85916" lon="0.6214">
        <ele>994.140625</ele>
        <time>2011-06-14T11:53:37Z</time>
      </trkpt>
      <trkpt lat="42.85915" lon="0.62139">
        <ele>993.65991210938</ele>
        <time>2011-06-14T11:53:38Z</time>
      </trkpt>
      <trkpt lat="42.85914" lon="0.62135">
        <ele>996.06323242188</ele>
        <time>2011-06-14T11:54:18Z</time>
      </trkpt>
      <trkpt lat="42.85915" lon="0.62134">
        <ele>996.06323242188</ele>
        <time>2011-06-14T11:54:19Z</time>
      </trkpt>
      <trkpt lat="42.85915" lon="0.62129">
        <ele>991.7373046875</ele>
        <time>2011-06-14T11:54:22Z</time>
      </trkpt>
      <trkpt lat="42.85916" lon="0.62127">
        <ele>990.77587890625</ele>
        <time>2011-06-14T11:54:23Z</time>
      </trkpt>
      <trkpt lat="42.85922" lon="0.62116">
        <ele>989.81469726562</ele>
        <time>2011-06-14T11:54:29Z</time>
      </trkpt>
      <trkpt lat="42.85923" lon="0.62113">
        <ele>989.81469726562</ele>
        <time>2011-06-14T11:54:31Z</time>
      </trkpt>
      <trkpt lat="42.85935" lon="0.62105">
        <ele>987.89184570312</ele>
        <time>2011-06-14T11:54:38Z</time>
      </trkpt>
      <trkpt lat="42.85942" lon="0.62094">
        <ele>985.48852539062</ele>
        <time>2011-06-14T11:54:43Z</time>
      </trkpt>
      <trkpt lat="42.85938" lon="0.62079">
        <ele>985.00805664062</ele>
        <time>2011-06-14T11:54:48Z</time>
      </trkpt>
      <trkpt lat="42.85927" lon="0.62075">
        <ele>982.1240234375</ele>
        <time>2011-06-14T11:54:53Z</time>
      </trkpt>
      <trkpt lat="42.85923" lon="0.62077">
        <ele>981.16284179688</ele>
        <time>2011-06-14T11:54:55Z</time>
      </trkpt>
      <trkpt lat="42.85913" lon="0.62076">
        <ele>979.23999023438</ele>
        <time>2011-06-14T11:55:02Z</time>
      </trkpt>
      <trkpt lat="42.85906" lon="0.62072">
        <ele>977.31762695312</ele>
        <time>2011-06-14T11:55:07Z</time>
      </trkpt>
      <trkpt lat="42.85896" lon="0.6207">
        <ele>975.39477539062</ele>
        <time>2011-06-14T11:55:14Z</time>
      </trkpt>
      <trkpt lat="42.85888" lon="0.6207">
        <ele>973.95288085938</ele>
        <time>2011-06-14T11:55:18Z</time>
      </trkpt>
      <trkpt lat="42.85879" lon="0.62076">
        <ele>974.91430664062</ele>
        <time>2011-06-14T11:55:24Z</time>
      </trkpt>
      <trkpt lat="42.85873" lon="0.62081">
        <ele>973.47241210938</ele>
        <time>2011-06-14T11:55:27Z</time>
      </trkpt>
      <trkpt lat="42.85863" lon="0.6209">
        <ele>970.107421875</ele>
        <time>2011-06-14T11:55:33Z</time>
      </trkpt>
      <trkpt lat="42.85862" lon="0.62091">
        <ele>969.626953125</ele>
        <time>2011-06-14T11:55:34Z</time>
      </trkpt>
      <trkpt lat="42.85853" lon="0.62091">
        <ele>966.74291992188</ele>
        <time>2011-06-14T11:55:41Z</time>
      </trkpt>
      <trkpt lat="42.85847" lon="0.6209">
        <ele>963.85888671875</ele>
        <time>2011-06-14T11:55:46Z</time>
      </trkpt>
      <trkpt lat="42.85844" lon="0.62091">
        <ele>962.89770507812</ele>
        <time>2011-06-14T11:55:48Z</time>
      </trkpt>
      <trkpt lat="42.85836" lon="0.62091">
        <ele>960.013671875</ele>
        <time>2011-06-14T11:55:53Z</time>
      </trkpt>
      <trkpt lat="42.85828" lon="0.62092">
        <ele>957.61059570312</ele>
        <time>2011-06-14T11:55:58Z</time>
      </trkpt>
      <trkpt lat="42.85817" lon="0.62091">
        <ele>956.16845703125</ele>
        <time>2011-06-14T11:56:03Z</time>
      </trkpt>
      <trkpt lat="42.85808" lon="0.62082">
        <ele>954.72631835938</ele>
        <time>2011-06-14T11:56:08Z</time>
      </trkpt>
      <trkpt lat="42.858" lon="0.62077">
        <ele>954.24584960938</ele>
        <time>2011-06-14T11:56:14Z</time>
      </trkpt>
      <trkpt lat="42.85793" lon="0.62071">
        <ele>954.24584960938</ele>
        <time>2011-06-14T11:56:19Z</time>
      </trkpt>
      <trkpt lat="42.8579" lon="0.62068">
        <ele>954.72631835938</ele>
        <time>2011-06-14T11:56:21Z</time>
      </trkpt>
      <trkpt lat="42.85777" lon="0.62057">
        <ele>951.84252929688</ele>
        <time>2011-06-14T11:56:27Z</time>
      </trkpt>
      <trkpt lat="42.85769" lon="0.62054">
        <ele>950.40063476562</ele>
        <time>2011-06-14T11:56:30Z</time>
      </trkpt>
      <trkpt lat="42.85763" lon="0.62051">
        <ele>948.95849609375</ele>
        <time>2011-06-14T11:56:33Z</time>
      </trkpt>
      <trkpt lat="42.85754" lon="0.62046">
        <ele>947.03588867188</ele>
        <time>2011-06-14T11:56:37Z</time>
      </trkpt>
      <trkpt lat="42.85739" lon="0.62039">
        <ele>944.63256835938</ele>
        <time>2011-06-14T11:56:43Z</time>
      </trkpt>
      <trkpt lat="42.85725" lon="0.62033">
        <ele>942.71020507812</ele>
        <time>2011-06-14T11:56:48Z</time>
      </trkpt>
      <trkpt lat="42.85722" lon="0.62032">
        <ele>942.2294921875</ele>
        <time>2011-06-14T11:56:52Z</time>
      </trkpt>
      <trkpt lat="42.85723" lon="0.62032">
        <ele>940.78735351562</ele>
        <time>2011-06-14T11:57:04Z</time>
      </trkpt>
      <trkpt lat="42.85722" lon="0.62031">
        <ele>940.30688476562</ele>
        <time>2011-06-14T11:57:09Z</time>
      </trkpt>
      <trkpt lat="42.85721" lon="0.6203">
        <ele>940.30688476562</ele>
        <time>2011-06-14T11:57:10Z</time>
      </trkpt>
      <trkpt lat="42.85708" lon="0.62018">
        <ele>939.34521484375</ele>
        <time>2011-06-14T11:57:20Z</time>
      </trkpt>
      <trkpt lat="42.85697" lon="0.62011">
        <ele>937.9033203125</ele>
        <time>2011-06-14T11:57:26Z</time>
      </trkpt>
      <trkpt lat="42.85686" lon="0.62013">
        <ele>936.46142578125</ele>
        <time>2011-06-14T11:57:30Z</time>
      </trkpt>
      <trkpt lat="42.85678" lon="0.62014">
        <ele>934.05810546875</ele>
        <time>2011-06-14T11:57:33Z</time>
      </trkpt>
      <trkpt lat="42.85666" lon="0.62015">
        <ele>933.0966796875</ele>
        <time>2011-06-14T11:57:38Z</time>
      </trkpt>
      <trkpt lat="42.85647" lon="0.62015">
        <ele>933.0966796875</ele>
        <time>2011-06-14T11:57:45Z</time>
      </trkpt>
      <trkpt lat="42.8564" lon="0.6202">
        <ele>933.57739257812</ele>
        <time>2011-06-14T11:57:49Z</time>
      </trkpt>
      <trkpt lat="42.85632" lon="0.62026">
        <ele>931.65478515625</ele>
        <time>2011-06-14T11:57:57Z</time>
      </trkpt>
      <trkpt lat="42.8563" lon="0.62029">
        <ele>931.17431640625</ele>
        <time>2011-06-14T11:57:59Z</time>
      </trkpt>
      <trkpt lat="42.85622" lon="0.6203">
        <ele>931.17431640625</ele>
        <time>2011-06-14T11:58:06Z</time>
      </trkpt>
      <trkpt lat="42.85617" lon="0.62031">
        <ele>930.69360351562</ele>
        <time>2011-06-14T11:58:13Z</time>
      </trkpt>
      <trkpt lat="42.85616" lon="0.62031">
        <ele>930.69360351562</ele>
        <time>2011-06-14T11:58:14Z</time>
      </trkpt>
    </trkseg>
  </trk>
</gpx>